Observation data for Romero 11SSW on 03/25/2019      Previous  Date  Next       Current Mesonet Observations  Soil Data  Daily Summary Page  Observations in Plain Language
KBR1 250500Z 00008KT 09/05 A3018 RMK A01 T00930051  RH  075%=      5-min Rain = 0
KBR1 250501Z 00008KT 09/05 A3018 RMK A01 T00920051  RH  076%=      5-min Rain = 0
KBR1 250502Z 36007KT 09/05 A3018 RMK A01 T00910051  RH  076%=      5-min Rain = 0
KBR1 250503Z 02009KT 09/05 A3018 RMK A01 T00900050  RH  076%=      5-min Rain = 0
KBR1 250504Z 03010KT 09/05 A3018 RMK A01 T00910050  RH  076%=      5-min Rain = 0
KBR1 250505Z 04012KT 09/05 A3018 RMK A01 T00910051  RH  076%=      5-min Rain = 0
KBR1 250506Z 04014KT 09/05 A3018 RMK A01 T00900051  RH  076%=      5-min Rain = 0
KBR1 250507Z 04015KT 09/05 A3018 RMK A01 T00900051  RH  077%=      5-min Rain = 0
KBR1 250508Z 04015KT 09/05 A3018 RMK A01 T00900051  RH  077%=      5-min Rain = 0
KBR1 250509Z 04016KT 09/05 A3018 RMK A01 T00900051  RH  077%=      5-min Rain = 0
KBR1 250510Z 04015KT 09/05 A3018 RMK A01 T00890051  RH  077%=      5-min Rain = 0
KBR1 250511Z 03015KT 09/05 A3018 RMK A01 T00890051  RH  077%=      5-min Rain = 0
KBR1 250512Z 03015KT 09/05 A3018 RMK A01 T00890050  RH  077%=      5-min Rain = 0
KBR1 250513Z 03013KT 09/05 A3018 RMK A01 T00900050  RH  076%=      5-min Rain = 0
KBR1 250514Z 03012KT 09/05 A3018 RMK A01 T00890051  RH  077%=      5-min Rain = 0
KBR1 250515Z 04011KT 09/05 A3018 RMK A01 T00880051  RH  078%=      5-min Rain = 0
KBR1 250516Z 03011KT 09/05 A3018 RMK A01 T00860051  RH  079%=      5-min Rain = 0
KBR1 250517Z 03012KT 09/05 A3018 RMK A01 T00850051  RH  079%=      5-min Rain = 0
KBR1 250518Z 02012KT 09/05 A3018 RMK A01 T00850051  RH  079%=      5-min Rain = 0
KBR1 250519Z 01012KT 09/05 A3018 RMK A01 T00850051  RH  079%=      5-min Rain = 0
KBR1 250520Z 02012KT 08/05 A3019 RMK A01 T00840051  RH  080%=      5-min Rain = 0
KBR1 250521Z 02013KT 08/05 A3019 RMK A01 T00820051  RH  081%=      5-min Rain = 0
KBR1 250522Z 02012KT 08/05 A3018 RMK A01 T00810051  RH  081%=      5-min Rain = 0
KBR1 250523Z 02012KT 08/05 A3018 RMK A01 T00800051  RH  082%=      5-min Rain = 0
KBR1 250524Z 02011KT 08/05 A3018 RMK A01 T00790051  RH  082%=      5-min Rain = 0
KBR1 250525Z 02013KT 08/05 A3018 RMK A01 T00790051  RH  083%=      5-min Rain = 0
KBR1 250526Z 02013KT 08/05 A3019 RMK A01 T00790052  RH  083%=      5-min Rain = 0
KBR1 250527Z 01012KT 08/05 A3019 RMK A01 T00780051  RH  083%=      5-min Rain = 0
KBR1 250528Z 01012KT 08/05 A3019 RMK A01 T00780051  RH  083%=      5-min Rain = 0
KBR1 250529Z 01012KT 08/05 A3019 RMK A01 T00780051  RH  083%=      5-min Rain = 0
KBR1 250530Z 01012KT 08/05 A3019 RMK A01 T00780051  RH  083%=      5-min Rain = 0
KBR1 250531Z 01012KT 08/05 A3019 RMK A01 T00780051  RH  083%=      5-min Rain = 0
KBR1 250532Z 02012KT 08/05 A3019 RMK A01 T00780051  RH  083%=      5-min Rain = 0
KBR1 250533Z 02011KT 08/05 A3019 RMK A01 T00780051  RH  083%=      5-min Rain = 0
KBR1 250534Z 02011KT 08/05 A3019 RMK A01 T00780051  RH  083%=      5-min Rain = 0
KBR1 250535Z 02010KT 08/05 A3019 RMK A01 T00790051  RH  083%=      5-min Rain = 0
KBR1 250536Z 02009KT 08/05 A3019 RMK A01 T00780051  RH  083%=      5-min Rain = 0
KBR1 250537Z 01008KT 08/05 A302 RMK A01 T00780051  RH  083%=      5-min Rain = 0
KBR1 250538Z 01008KT 08/05 A302 RMK A01 T00770051  RH  084%=      5-min Rain = 0
KBR1 250539Z 00008KT 08/05 A302 RMK A01 T00750051  RH  084%=      5-min Rain = 0
KBR1 250540Z 00008KT 07/05 A302 RMK A01 T00740050  RH  085%=      5-min Rain = 0
KBR1 250541Z 01008KT 07/05 A302 RMK A01 T00730050  RH  086%=      5-min Rain = 0
KBR1 250542Z 00008KT 07/05 A302 RMK A01 T00720050  RH  086%=      5-min Rain = 0
KBR1 250543Z 01008KT 07/05 A302 RMK A01 T00710050  RH  086%=      5-min Rain = 0
KBR1 250544Z 01007KT 07/05 A302 RMK A01 T00710049  RH  086%=      5-min Rain = 0
KBR1 250545Z 01007KT 07/05 A302 RMK A01 T00700049  RH  086%=      5-min Rain = 0
KBR1 250546Z 01007KT 07/05 A302 RMK A01 T00690049  RH  087%=      5-min Rain = 0
KBR1 250547Z 01008KT 07/05 A302 RMK A01 T00690049  RH  087%=      5-min Rain = 0
KBR1 250548Z 01008KT 07/05 A302 RMK A01 T00690049  RH  087%=      5-min Rain = 0
KBR1 250549Z 02008KT 07/05 A302 RMK A01 T00680048  RH  087%=      5-min Rain = 0
KBR1 250550Z 02008KT 07/05 A302 RMK A01 T00680048  RH  087%=      5-min Rain = 0
KBR1 250551Z 01008KT 07/05 A302 RMK A01 T00670048  RH  087%=      5-min Rain = 0
KBR1 250552Z 01009KT 07/05 A302 RMK A01 T00670048  RH  088%=      5-min Rain = 0
KBR1 250553Z 02009KT 07/05 A302 RMK A01 T00670048  RH  088%=      5-min Rain = 0
KBR1 250554Z 01009KT 07/05 A302 RMK A01 T00670048  RH  088%=      5-min Rain = 0
KBR1 250555Z 02009KT 07/05 A302 RMK A01 T00670048  RH  088%=      5-min Rain = 0
KBR1 250556Z 01009KT 07/05 A302 RMK A01 T00670048  RH  088%=      5-min Rain = 0
KBR1 250557Z 01009KT 07/05 A302 RMK A01 T00670048  RH  088%=      5-min Rain = 0
KBR1 250558Z 02009KT 07/05 A302 RMK A01 T00670048  RH  088%=      5-min Rain = 0
KBR1 250559Z 02009KT 07/05 A302 RMK A01 T00660047  RH  088%=      5-min Rain = 0
KBR1 250600Z 02009KT 07/05 A302 RMK A01 T00660048  RH  088%=      5-min Rain = 0
KBR1 250601Z 02010KT 07/05 A302 RMK A01 T00660048  RH  088%=      5-min Rain = 0
KBR1 250602Z 02010KT 07/05 A302 RMK A01 T00660048  RH  088%=      5-min Rain = 0
KBR1 250603Z 02011KT 07/05 A302 RMK A01 T00660047  RH  088%=      5-min Rain = 0
KBR1 250604Z 02009KT 07/05 A302 RMK A01 T00660048  RH  088%=      5-min Rain = 0
KBR1 250605Z 03011KT 07/05 A302 RMK A01 T00670048  RH  088%=      5-min Rain = 0
KBR1 250606Z 02010KT 07/05 A302 RMK A01 T00670049  RH  088%=      5-min Rain = 0
KBR1 250607Z 03011KT 07/05 A302 RMK A01 T00680049  RH  088%=      5-min Rain = 0
KBR1 250608Z 02011KT 07/05 A3019 RMK A01 T00680049  RH  088%=      5-min Rain = 0
KBR1 250609Z 02011KT 07/05 A302 RMK A01 T00690049  RH  087%=      5-min Rain = 0
KBR1 250610Z 02012KT 07/05 A302 RMK A01 T00690049  RH  087%=      5-min Rain = 0
KBR1 250611Z 02010KT 07/05 A302 RMK A01 T00690049  RH  087%=      5-min Rain = 0
KBR1 250612Z 02010KT 07/05 A302 RMK A01 T00690049  RH  087%=      5-min Rain = 0
KBR1 250613Z 02011KT 07/05 A3019 RMK A01 T00690049  RH  087%=      5-min Rain = 0
KBR1 250614Z 03010KT 07/05 A3019 RMK A01 T00690049  RH  087%=      5-min Rain = 0
KBR1 250615Z 03011KT 07/05 A3019 RMK A01 T00680049  RH  087%=      5-min Rain = 0
KBR1 250616Z 03011KT 07/05 A3019 RMK A01 T00690049  RH  087%=      5-min Rain = 0
KBR1 250617Z 03012KT 07/05 A3019 RMK A01 T00690049  RH  087%=      5-min Rain = 0
KBR1 250618Z 03012KT 07/05 A3019 RMK A01 T00690049  RH  087%=      5-min Rain = 0
KBR1 250619Z 04012KT 07/05 A3019 RMK A01 T00700050  RH  087%=      5-min Rain = 0
KBR1 250620Z 04012KT 07/05 A3019 RMK A01 T00710050  RH  087%=      5-min Rain = 0
KBR1 250621Z 04013KT 07/05 A3019 RMK A01 T00720050  RH  086%=      5-min Rain = 0
KBR1 250622Z 04013KT 07/05 A3019 RMK A01 T00730050  RH  086%=      5-min Rain = 0
KBR1 250623Z 04012KT 07/05 A3019 RMK A01 T00740051  RH  085%=      5-min Rain = 0
KBR1 250624Z 03011KT 08/05 A302 RMK A01 T00750050  RH  085%=      5-min Rain = 0
KBR1 250625Z 02011KT 08/05 A302 RMK A01 T00750050  RH  085%=      5-min Rain = 0
KBR1 250626Z 01010KT 08/05 A302 RMK A01 T00750050  RH  085%=      5-min Rain = 0
KBR1 250627Z 01011KT 07/05 A302 RMK A01 T00740050  RH  085%=      5-min Rain = 0
KBR1 250628Z 01011KT 07/05 A302 RMK A01 T00720049  RH  085%=      5-min Rain = 0
KBR1 250629Z 01012KT 07/05 A302 RMK A01 T00700048  RH  086%=      5-min Rain = 0
KBR1 250630Z 00011KT 07/05 A302 RMK A01 T00690048  RH  086%=      5-min Rain = 0
KBR1 250631Z 00011KT 07/05 A302 RMK A01 T00680048  RH  087%=      5-min Rain = 0
KBR1 250632Z 00011KT 07/05 A302 RMK A01 T00680048  RH  087%=      5-min Rain = 0
KBR1 250633Z 36015KT 07/05 A302 RMK A01 T00670048  RH  088%=      5-min Rain = 0
KBR1 250634Z 01016KT 07/05 A302 RMK A01 T00690050  RH  087%=      5-min Rain = 0
KBR1 250635Z 02017KT 07/05 A302 RMK A01 T00730051  RH  086%=      5-min Rain = 0
KBR1 250636Z 03016KT 08/05 A302 RMK A01 T00760051  RH  084%=      5-min Rain = 0
KBR1 250637Z 04016KT 08/05 A302 RMK A01 T00790052  RH  083%=      5-min Rain = 0
KBR1 250638Z 04017KT 08/05 A302 RMK A01 T00820052  RH  082%=      5-min Rain = 0
KBR1 250639Z 04016KT 08/05 A302 RMK A01 T00840052  RH  081%=      5-min Rain = 0
KBR1 250640Z 04017KT 09/05 A302 RMK A01 T00850052  RH  080%=      5-min Rain = 0
KBR1 250641Z 04017KT 09/05 A302 RMK A01 T00860052  RH  079%=      5-min Rain = 0
KBR1 250642Z 04016KT 09/05 A302 RMK A01 T00850052  RH  080%=      5-min Rain = 0
KBR1 250643Z 04016KT 09/05 A302 RMK A01 T00850052  RH  080%=      5-min Rain = 0
KBR1 250644Z 04016KT 09/05 A3019 RMK A01 T00850053  RH  080%=      5-min Rain = 0
KBR1 250645Z 04016KT 08/05 A302 RMK A01 T00840053  RH  081%=      5-min Rain = 0
KBR1 250646Z 04015KT 08/05 A302 RMK A01 T00840053  RH  081%=      5-min Rain = 0
KBR1 250647Z 03014KT 08/05 A302 RMK A01 T00830053  RH  081%=      5-min Rain = 0
KBR1 250648Z 03013KT 08/05 A302 RMK A01 T00820053  RH  082%=      5-min Rain = 0
KBR1 250649Z 03013KT 08/05 A302 RMK A01 T00810053  RH  082%=      5-min Rain = 0
KBR1 250650Z 03014KT 08/05 A302 RMK A01 T00810053  RH  082%=      5-min Rain = 0
KBR1 250651Z 03013KT 08/05 A302 RMK A01 T00810053  RH  082%=      5-min Rain = 0
KBR1 250652Z 03013KT 08/05 A302 RMK A01 T00810053  RH  083%=      5-min Rain = 0
KBR1 250653Z 02012KT 08/05 A302 RMK A01 T00800053  RH  083%=      5-min Rain = 0
KBR1 250654Z 02011KT 08/05 A302 RMK A01 T00790052  RH  083%=      5-min Rain = 0
KBR1 250655Z 02010KT 08/05 A3021 RMK A01 T00780051  RH  083%=      5-min Rain = 0
KBR1 250656Z 02010KT 08/05 A3021 RMK A01 T00760051  RH  084%=      5-min Rain = 0
KBR1 250657Z 02009KT 08/05 A302 RMK A01 T00750050  RH  084%=      5-min Rain = 0
KBR1 250658Z 02009KT 07/05 A302 RMK A01 T00730049  RH  085%=      5-min Rain = 0
KBR1 250659Z 02009KT 07/05 A302 RMK A01 T00720049  RH  085%=      5-min Rain = 0
KBR1 250700Z 02009KT 07/05 A302 RMK A01 T00710049  RH  086%=      5-min Rain = 0
KBR1 250701Z 01009KT 07/05 A302 RMK A01 T00700048  RH  086%=      5-min Rain = 0
KBR1 250702Z 01009KT 07/05 A302 RMK A01 T00690048  RH  087%=      5-min Rain = 0
KBR1 250703Z 01009KT 07/05 A302 RMK A01 T00690049  RH  087%=      5-min Rain = 0
KBR1 250704Z 01011KT 07/05 A302 RMK A01 T00680049  RH  087%=      5-min Rain = 0
KBR1 250705Z 01012KT 07/05 A302 RMK A01 T00680048  RH  087%=      5-min Rain = 0
KBR1 250706Z 01011KT 07/05 A302 RMK A01 T00670048  RH  088%=      5-min Rain = 0
KBR1 250707Z 01011KT 07/05 A302 RMK A01 T00670048  RH  088%=      5-min Rain = 0
KBR1 250708Z 01011KT 07/05 A302 RMK A01 T00660048  RH  088%=      5-min Rain = 0
KBR1 250709Z 02012KT 07/05 A302 RMK A01 T00660048  RH  088%=      5-min Rain = 0
KBR1 250710Z 02011KT 07/05 A302 RMK A01 T00660048  RH  088%=      5-min Rain = 0
KBR1 250711Z 02012KT 07/05 A302 RMK A01 T00660048  RH  088%=      5-min Rain = 0
KBR1 250712Z 02012KT 07/05 A302 RMK A01 T00660048  RH  088%=      5-min Rain = 0
KBR1 250713Z 03011KT 07/05 A302 RMK A01 T00660048  RH  088%=      5-min Rain = 0
KBR1 250714Z 03012KT 07/05 A302 RMK A01 T00670049  RH  088%=      5-min Rain = 0
KBR1 250715Z 03011KT 07/05 A302 RMK A01 T00680049  RH  088%=      5-min Rain = 0
KBR1 250716Z 03011KT 07/05 A3021 RMK A01 T00690049  RH  087%=      5-min Rain = 0
KBR1 250717Z 04011KT 07/05 A3021 RMK A01 T00690049  RH  087%=      5-min Rain = 0
KBR1 250718Z 04011KT 07/05 A3021 RMK A01 T00700050  RH  087%=      5-min Rain = 0
KBR1 250719Z 04010KT 07/05 A3021 RMK A01 T00700050  RH  087%=      5-min Rain = 0
KBR1 250720Z 04010KT 07/05 A3021 RMK A01 T00700049  RH  087%=      5-min Rain = 0
KBR1 250721Z 04010KT 07/05 A3021 RMK A01 T00700050  RH  087%=      5-min Rain = 0
KBR1 250722Z 04010KT 07/05 A3021 RMK A01 T00690050  RH  087%=      5-min Rain = 0
KBR1 250723Z 03010KT 07/05 A3021 RMK A01 T00700050  RH  087%=      5-min Rain = 0
KBR1 250724Z 03010KT 07/05 A3021 RMK A01 T00700050  RH  087%=      5-min Rain = 0
KBR1 250725Z 04009KT 07/05 A3021 RMK A01 T00690050  RH  087%=      5-min Rain = 0
KBR1 250726Z 03009KT 07/05 A3021 RMK A01 T00690050  RH  087%=      5-min Rain = 0
KBR1 250727Z 04008KT 07/05 A3021 RMK A01 T00680049  RH  088%=      5-min Rain = 0
KBR1 250728Z 04008KT 07/05 A3021 RMK A01 T00680049  RH  088%=      5-min Rain = 0
KBR1 250729Z 04008KT 07/05 A3021 RMK A01 T00670048  RH  088%=      5-min Rain = 0
KBR1 250730Z 04008KT 07/05 A3021 RMK A01 T00670048  RH  088%=      5-min Rain = 0
KBR1 250731Z 04008KT 07/05 A3021 RMK A01 T00680049  RH  087%=      5-min Rain = 0
KBR1 250732Z 04007KT 07/05 A3021 RMK A01 T00690049  RH  087%=      5-min Rain = 0
KBR1 250733Z 04008KT 07/05 A3021 RMK A01 T00690049  RH  087%=      5-min Rain = 0
KBR1 250734Z 04008KT 07/05 A3021 RMK A01 T00690049  RH  087%=      5-min Rain = 0
KBR1 250735Z 04008KT 07/05 A3021 RMK A01 T00700049  RH  087%=      5-min Rain = 0
KBR1 250736Z 03008KT 07/05 A3021 RMK A01 T00700049  RH  087%=      5-min Rain = 0
KBR1 250737Z 03009KT 07/05 A3021 RMK A01 T00710049  RH  086%=      5-min Rain = 0
KBR1 250738Z 03008KT 07/05 A3021 RMK A01 T00710049  RH  086%=      5-min Rain = 0
KBR1 250739Z 03008KT 07/05 A3021 RMK A01 T00710049  RH  086%=      5-min Rain = 0
KBR1 250740Z 03008KT 07/05 A3021 RMK A01 T00710049  RH  086%=      5-min Rain = 0
KBR1 250741Z 02007KT 07/05 A3021 RMK A01 T00710049  RH  086%=      5-min Rain = 0
KBR1 250742Z 02007KT 07/05 A3021 RMK A01 T00700049  RH  087%=      5-min Rain = 0
KBR1 250743Z 02007KT 07/05 A3021 RMK A01 T00690048  RH  087%=      5-min Rain = 0
KBR1 250744Z 02007KT 07/05 A3021 RMK A01 T00680048  RH  087%=      5-min Rain = 0
KBR1 250745Z 02006KT 07/05 A3021 RMK A01 T00680048  RH  087%=      5-min Rain = 0
KBR1 250746Z 01007KT 07/05 A3022 RMK A01 T00660047  RH  088%=      5-min Rain = 0
KBR1 250747Z 00006KT 06/05 A3022 RMK A01 T00640046  RH  088%=      5-min Rain = 0
KBR1 250748Z 01007KT 06/05 A3022 RMK A01 T00620045  RH  089%=      5-min Rain = 0
KBR1 250749Z 01008KT 06/05 A3022 RMK A01 T00610045  RH  089%=      5-min Rain = 0
KBR1 250750Z 01008KT 06/04 A3022 RMK A01 T00600044  RH  090%=      5-min Rain = 0
KBR1 250751Z 01009KT 06/05 A3022 RMK A01 T00590045  RH  090%=      5-min Rain = 0
KBR1 250752Z 01009KT 06/05 A3022 RMK A01 T00590045  RH  091%=      5-min Rain = 0
KBR1 250753Z 01010KT 06/05 A3022 RMK A01 T00590045  RH  091%=      5-min Rain = 0
KBR1 250754Z 01010KT 06/05 A3022 RMK A01 T00590045  RH  091%=      5-min Rain = 0
KBR1 250755Z 01009KT 06/05 A3022 RMK A01 T00590046  RH  091%=      5-min Rain = 0
KBR1 250756Z 01009KT 06/05 A3022 RMK A01 T00590046  RH  092%=      5-min Rain = 0
KBR1 250757Z 01009KT 06/05 A3022 RMK A01 T00590046  RH  091%=      5-min Rain = 0
KBR1 250758Z 02008KT 06/05 A3021 RMK A01 T00600047  RH  091%=      5-min Rain = 0
KBR1 250759Z 02008KT 06/05 A3021 RMK A01 T00600047  RH  091%=      5-min Rain = 0
KBR1 250800Z 02008KT 06/05 A3021 RMK A01 T00600046  RH  091%=      5-min Rain = 0
KBR1 250801Z 02007KT 06/05 A3021 RMK A01 T00600047  RH  091%=      5-min Rain = 0
KBR1 250802Z 02007KT 06/05 A3021 RMK A01 T00600046  RH  091%=      5-min Rain = 0
KBR1 250803Z 02007KT 06/05 A3021 RMK A01 T00600047  RH  091%=      5-min Rain = 0
KBR1 250804Z 02006KT 06/05 A3021 RMK A01 T00600047  RH  091%=      5-min Rain = 0
KBR1 250805Z 02007KT 06/05 A3021 RMK A01 T00600046  RH  091%=      5-min Rain = 0
KBR1 250806Z 02007KT 06/05 A3021 RMK A01 T00590046  RH  091%=      5-min Rain = 0
KBR1 250807Z 01007KT 06/05 A3021 RMK A01 T00590046  RH  091%=      5-min Rain = 0
KBR1 250808Z 01008KT 06/05 A3021 RMK A01 T00590046  RH  092%=      5-min Rain = 0
KBR1 250809Z 01007KT 06/05 A3022 RMK A01 T00590047  RH  092%=      5-min Rain = 0
KBR1 250810Z 01008KT 06/05 A3022 RMK A01 T00600047  RH  091%=      5-min Rain = 0
KBR1 250811Z 01008KT 06/05 A3022 RMK A01 T00600046  RH  091%=      5-min Rain = 0
KBR1 250812Z 01008KT 06/05 A3022 RMK A01 T00590046  RH  091%=      5-min Rain = 0
KBR1 250813Z 01009KT 06/05 A3022 RMK A01 T00590045  RH  091%=      5-min Rain = 0
KBR1 250814Z 01008KT 06/05 A3022 RMK A01 T00580045  RH  091%=      5-min Rain = 0
KBR1 250815Z 01009KT 06/05 A3022 RMK A01 T00580045  RH  091%=      5-min Rain = 0
KBR1 250816Z 02008KT 06/05 A3022 RMK A01 T00570045  RH  092%=      5-min Rain = 0
KBR1 250817Z 02008KT 06/05 A3022 RMK A01 T00580045  RH  092%=      5-min Rain = 0
KBR1 250818Z 02007KT 06/05 A3022 RMK A01 T00580045  RH  091%=      5-min Rain = 0
KBR1 250819Z 02007KT 06/05 A3022 RMK A01 T00580045  RH  091%=      5-min Rain = 0
KBR1 250820Z 02007KT 06/05 A3022 RMK A01 T00580045  RH  091%=      5-min Rain = 0
KBR1 250821Z 01006KT 06/05 A3022 RMK A01 T00580045  RH  091%=      5-min Rain = 0
KBR1 250822Z 01006KT 06/05 A3022 RMK A01 T00580045  RH  091%=      5-min Rain = 0
KBR1 250823Z 00006KT 06/04 A3022 RMK A01 T00570044  RH  091%=      5-min Rain = 0
KBR1 250824Z 00006KT 06/04 A3022 RMK A01 T00570044  RH  092%=      5-min Rain = 0
KBR1 250825Z 00006KT 06/04 A3022 RMK A01 T00560043  RH  092%=      5-min Rain = 0
KBR1 250826Z 00007KT 06/04 A3022 RMK A01 T00550043  RH  092%=      5-min Rain = 0
KBR1 250827Z 00006KT 05/04 A3022 RMK A01 T00540042  RH  092%=      5-min Rain = 0
KBR1 250828Z 00007KT 05/04 A3022 RMK A01 T00540042  RH  092%=      5-min Rain = 0
KBR1 250829Z 01007KT 05/04 A3022 RMK A01 T00530042  RH  092%=      5-min Rain = 0
KBR1 250830Z 01007KT 05/04 A3021 RMK A01 T00530042  RH  093%=      5-min Rain = 0
KBR1 250831Z 01008KT 05/04 A3021 RMK A01 T00520041  RH  093%=      5-min Rain = 0
KBR1 250832Z 01008KT 05/04 A3021 RMK A01 T00520041  RH  093%=      5-min Rain = 0
KBR1 250833Z 02008KT 05/04 A3021 RMK A01 T00520041  RH  093%=      5-min Rain = 0
KBR1 250834Z 02008KT 05/04 A3021 RMK A01 T00520041  RH  093%=      5-min Rain = 0
KBR1 250835Z 02008KT 05/04 A3021 RMK A01 T00520042  RH  093%=      5-min Rain = 0
KBR1 250836Z 02009KT 05/04 A3021 RMK A01 T00530042  RH  093%=      5-min Rain = 0
KBR1 250837Z 02008KT 05/04 A3021 RMK A01 T00530042  RH  093%=      5-min Rain = 0
KBR1 250838Z 02009KT 05/04 A3021 RMK A01 T00530042  RH  093%=      5-min Rain = 0
KBR1 250839Z 02008KT 05/04 A3021 RMK A01 T00540043  RH  093%=      5-min Rain = 0
KBR1 250840Z 02007KT 05/04 A3021 RMK A01 T00540043  RH  092%=      5-min Rain = 0
KBR1 250841Z 03007KT 05/04 A3022 RMK A01 T00540043  RH  092%=      5-min Rain = 0
KBR1 250842Z 02007KT 05/04 A3022 RMK A01 T00540043  RH  092%=      5-min Rain = 0
KBR1 250843Z 02007KT 06/04 A3022 RMK A01 T00550043  RH  092%=      5-min Rain = 0
KBR1 250844Z 02007KT 05/04 A3022 RMK A01 T00540043  RH  092%=      5-min Rain = 0
KBR1 250845Z 02007KT 06/04 A3022 RMK A01 T00550043  RH  092%=      5-min Rain = 0
KBR1 250846Z 01007KT 05/04 A3022 RMK A01 T00540043  RH  092%=      5-min Rain = 0
KBR1 250847Z 01007KT 06/04 A3022 RMK A01 T00550043  RH  092%=      5-min Rain = 0
KBR1 250848Z 01008KT 05/04 A3022 RMK A01 T00540042  RH  092%=      5-min Rain = 0
KBR1 250849Z 01008KT 05/04 A3022 RMK A01 T00540042  RH  092%=      5-min Rain = 0
KBR1 250850Z 01009KT 05/04 A3022 RMK A01 T00530042  RH  092%=      5-min Rain = 0
KBR1 250851Z 01007KT 05/04 A3022 RMK A01 T00530042  RH  092%=      5-min Rain = 0
KBR1 250852Z 01008KT 05/04 A3022 RMK A01 T00530042  RH  092%=      5-min Rain = 0
KBR1 250853Z 02007KT 05/04 A3022 RMK A01 T00530042  RH  093%=      5-min Rain = 0
KBR1 250854Z 02007KT 05/04 A3022 RMK A01 T00530042  RH  093%=      5-min Rain = 0
KBR1 250855Z 02006KT 05/04 A3022 RMK A01 T00530042  RH  093%=      5-min Rain = 0
KBR1 250856Z 02006KT 05/04 A3022 RMK A01 T00520041  RH  093%=      5-min Rain = 0
KBR1 250857Z 02006KT 05/04 A3022 RMK A01 T00520041  RH  093%=      5-min Rain = 0
KBR1 250858Z 02006KT 05/04 A3022 RMK A01 T00510040  RH  093%=      5-min Rain = 0
KBR1 250859Z 01006KT 05/04 A3022 RMK A01 T00510040  RH  093%=      5-min Rain = 0
KBR1 250900Z 01006KT 05/04 A3022 RMK A01 T00510041  RH  093%=      5-min Rain = 0
KBR1 250901Z 01007KT 05/04 A3022 RMK A01 T00500040  RH  093%=      5-min Rain = 0
KBR1 250902Z 01007KT 05/04 A3022 RMK A01 T00500040  RH  093%=      5-min Rain = 0
KBR1 250903Z 01008KT 05/04 A3022 RMK A01 T00500040  RH  094%=      5-min Rain = 0
KBR1 250904Z 02007KT 05/04 A3022 RMK A01 T00500040  RH  094%=      5-min Rain = 0
KBR1 250905Z 01007KT 05/04 A3022 RMK A01 T00500040  RH  094%=      5-min Rain = 0
KBR1 250906Z 01007KT 05/04 A3022 RMK A01 T00500040  RH  093%=      5-min Rain = 0
KBR1 250907Z 01007KT 05/04 A3022 RMK A01 T00500040  RH  093%=      5-min Rain = 0
KBR1 250908Z 02007KT 05/04 A3022 RMK A01 T00500040  RH  093%=      5-min Rain = 0
KBR1 250909Z 01007KT 05/04 A3022 RMK A01 T00500040  RH  094%=      5-min Rain = 0
KBR1 250910Z 01009KT 05/04 A3022 RMK A01 T00500040  RH  094%=      5-min Rain = 0
KBR1 250911Z 01009KT 05/04 A3022 RMK A01 T00500041  RH  094%=      5-min Rain = 0
KBR1 250912Z 01009KT 05/04 A3022 RMK A01 T00500041  RH  094%=      5-min Rain = 0
KBR1 250913Z 01009KT 05/04 A3022 RMK A01 T00500040  RH  094%=      5-min Rain = 0
KBR1 250914Z 01009KT 05/04 A3022 RMK A01 T00500040  RH  094%=      5-min Rain = 0
KBR1 250915Z 01009KT 05/04 A3022 RMK A01 T00500040  RH  094%=      5-min Rain = 0
KBR1 250916Z 01009KT 05/04 A3022 RMK A01 T00500040  RH  094%=      5-min Rain = 0
KBR1 250917Z 01009KT 05/04 A3022 RMK A01 T00490040  RH  094%=      5-min Rain = 0
KBR1 250918Z 01009KT 05/04 A3022 RMK A01 T00490040  RH  094%=      5-min Rain = 0
KBR1 250919Z 01009KT 05/04 A3022 RMK A01 T00500040  RH  094%=      5-min Rain = 0
KBR1 250920Z 01009KT 05/04 A3022 RMK A01 T00490040  RH  094%=      5-min Rain = 0
KBR1 250921Z 01008KT 05/04 A3022 RMK A01 T00490040  RH  094%=      5-min Rain = 0
KBR1 250922Z 01007KT 05/04 A3022 RMK A01 T00490040  RH  094%=      5-min Rain = 0
KBR1 250923Z 01007KT 05/04 A3022 RMK A01 T00490040  RH  094%=      5-min Rain = 0
KBR1 250924Z 00007KT 05/04 A3021 RMK A01 T00490039  RH  094%=      5-min Rain = 0
KBR1 250925Z 01007KT 05/04 A3021 RMK A01 T00480039  RH  094%=      5-min Rain = 0
KBR1 250926Z 01007KT 05/04 A3021 RMK A01 T00480039  RH  094%=      5-min Rain = 0
KBR1 250927Z 01007KT 05/04 A3021 RMK A01 T00480039  RH  094%=      5-min Rain = 0
KBR1 250928Z 01007KT 05/04 A3021 RMK A01 T00480039  RH  094%=      5-min Rain = 0
KBR1 250929Z 01007KT 05/04 A3021 RMK A01 T00480039  RH  094%=      5-min Rain = 0
KBR1 250930Z 01007KT 05/04 A3021 RMK A01 T00480039  RH  094%=      5-min Rain = 0
KBR1 250931Z 01007KT 05/04 A3021 RMK A01 T00470039  RH  094%=      5-min Rain = 0
KBR1 250932Z 01008KT 05/04 A3021 RMK A01 T00470039  RH  094%=      5-min Rain = 0
KBR1 250933Z 01008KT 05/04 A3021 RMK A01 T00470039  RH  094%=      5-min Rain = 0
KBR1 250934Z 00008KT 05/04 A3022 RMK A01 T00470039  RH  095%=      5-min Rain = 0
KBR1 250935Z 00008KT 05/04 A3022 RMK A01 T00470039  RH  094%=      5-min Rain = 0
KBR1 250936Z 00008KT 05/04 A3022 RMK A01 T00470039  RH  094%=      5-min Rain = 0
KBR1 250937Z 01008KT 05/04 A3022 RMK A01 T00470039  RH  094%=      5-min Rain = 0
KBR1 250938Z 01008KT 05/04 A3022 RMK A01 T00470039  RH  095%=      5-min Rain = 0
KBR1 250939Z 01008KT 05/04 A3022 RMK A01 T00470039  RH  094%=      5-min Rain = 0
KBR1 250940Z 01008KT 05/04 A3022 RMK A01 T00470038  RH  094%=      5-min Rain = 0
KBR1 250941Z 01008KT 05/04 A3022 RMK A01 T00470039  RH  095%=      5-min Rain = 0
KBR1 250942Z 01008KT 05/04 A3022 RMK A01 T00470038  RH  095%=      5-min Rain = 0
KBR1 250943Z 01008KT 05/04 A3022 RMK A01 T00470039  RH  095%=      5-min Rain = 0
KBR1 250944Z 01007KT 05/04 A3022 RMK A01 T00460038  RH  095%=      5-min Rain = 0
KBR1 250945Z 01007KT 05/04 A3022 RMK A01 T00460038  RH  094%=      5-min Rain = 0
KBR1 250946Z 01008KT 05/04 A3022 RMK A01 T00460038  RH  094%=      5-min Rain = 0
KBR1 250947Z 01007KT 05/04 A3022 RMK A01 T00460038  RH  095%=      5-min Rain = 0
KBR1 250948Z 01008KT 05/04 A3022 RMK A01 T00460038  RH  095%=      5-min Rain = 0
KBR1 250949Z 02007KT 05/04 A3022 RMK A01 T00460038  RH  095%=      5-min Rain = 0
KBR1 250950Z 01007KT 05/04 A3022 RMK A01 T00470039  RH  095%=      5-min Rain = 0
KBR1 250951Z 02007KT 05/04 A3022 RMK A01 T00470039  RH  095%=      5-min Rain = 0
KBR1 250952Z 01008KT 05/04 A3022 RMK A01 T00470039  RH  095%=      5-min Rain = 0
KBR1 250953Z 01008KT 05/04 A3022 RMK A01 T00470039  RH  095%=      5-min Rain = 0
KBR1 250954Z 01008KT 05/04 A3022 RMK A01 T00480040  RH  095%=      5-min Rain = 0
KBR1 250955Z 01008KT 05/04 A3022 RMK A01 T00480040  RH  094%=      5-min Rain = 0
KBR1 250956Z 01007KT 05/04 A3022 RMK A01 T00480040  RH  094%=      5-min Rain = 0
KBR1 250957Z 01007KT 05/04 A3022 RMK A01 T00480040  RH  094%=      5-min Rain = 0
KBR1 250958Z 01007KT 05/04 A3022 RMK A01 T00490040  RH  094%=      5-min Rain = 0
KBR1 250959Z 01006KT 05/04 A3022 RMK A01 T00490040  RH  094%=      5-min Rain = 0
KBR1 251000Z 01006KT 05/04 A3022 RMK A01 T00490040  RH  094%=      5-min Rain = 0
KBR1 251001Z 01006KT 05/04 A3022 RMK A01 T00490040  RH  094%=      5-min Rain = 0
KBR1 251002Z 01006KT 05/04 A3022 RMK A01 T00490040  RH  094%=      5-min Rain = 0
KBR1 251003Z 01006KT 05/04 A3022 RMK A01 T00490040  RH  094%=      5-min Rain = 0
KBR1 251004Z 01006KT 05/04 A3022 RMK A01 T00480040  RH  094%=      5-min Rain = 0
KBR1 251005Z 01006KT 05/04 A3022 RMK A01 T00480039  RH  094%=      5-min Rain = 0
KBR1 251006Z 01006KT 05/04 A3022 RMK A01 T00480039  RH  094%=      5-min Rain = 0
KBR1 251007Z 01005KT 05/04 A3022 RMK A01 T00480039  RH  094%=      5-min Rain = 0
KBR1 251008Z 02005KT 05/04 A3022 RMK A01 T00470038  RH  094%=      5-min Rain = 0
KBR1 251009Z 02005KT 05/04 A3022 RMK A01 T00470038  RH  094%=      5-min Rain = 0
KBR1 251010Z 02005KT 05/04 A3022 RMK A01 T00460037  RH  094%=      5-min Rain = 0
KBR1 251011Z 02005KT 05/04 A3022 RMK A01 T00460038  RH  094%=      5-min Rain = 0
KBR1 251012Z 02005KT 05/04 A3022 RMK A01 T00460037  RH  094%=      5-min Rain = 0
KBR1 251013Z 02005KT 05/04 A3022 RMK A01 T00460038  RH  094%=      5-min Rain = 0
KBR1 251014Z 02005KT 05/04 A3022 RMK A01 T00460038  RH  094%=      5-min Rain = 0
KBR1 251015Z 02005KT 05/04 A3022 RMK A01 T00460038  RH  095%=      5-min Rain = 0
KBR1 251016Z 02005KT 05/04 A3022 RMK A01 T00460038  RH  094%=      5-min Rain = 0
KBR1 251017Z 02006KT 05/04 A3022 RMK A01 T00450037  RH  094%=      5-min Rain = 0
KBR1 251018Z 02006KT 05/04 A3022 RMK A01 T00450037  RH  095%=      5-min Rain = 0
KBR1 251019Z 02006KT 05/04 A3022 RMK A01 T00450037  RH  095%=      5-min Rain = 0
KBR1 251020Z 02006KT 05/04 A3022 RMK A01 T00450038  RH  095%=      5-min Rain = 0
KBR1 251021Z 02005KT 05/04 A3022 RMK A01 T00460038  RH  095%=      5-min Rain = 0
KBR1 251022Z 02006KT 05/04 A3022 RMK A01 T00460038  RH  095%=      5-min Rain = 0
KBR1 251023Z 01006KT 05/04 A3022 RMK A01 T00460038  RH  095%=      5-min Rain = 0
KBR1 251024Z 02006KT 05/04 A3022 RMK A01 T00460038  RH  095%=      5-min Rain = 0
KBR1 251025Z 02007KT 05/04 A3022 RMK A01 T00460038  RH  095%=      5-min Rain = 0
KBR1 251026Z 01006KT 05/04 A3022 RMK A01 T00460038  RH  095%=      5-min Rain = 0
KBR1 251027Z 01007KT 05/04 A3022 RMK A01 T00460038  RH  094%=      5-min Rain = 0
KBR1 251028Z 02007KT 05/04 A3022 RMK A01 T00460038  RH  094%=      5-min Rain = 0
KBR1 251029Z 02007KT 05/04 A3022 RMK A01 T00460038  RH  094%=      5-min Rain = 0
KBR1 251030Z 02008KT 05/04 A3022 RMK A01 T00460038  RH  094%=      5-min Rain = 0
KBR1 251031Z 02008KT 05/04 A3022 RMK A01 T00460037  RH  094%=      5-min Rain = 0
KBR1 251032Z 02007KT 05/04 A3022 RMK A01 T00460037  RH  094%=      5-min Rain = 0
KBR1 251033Z 02008KT 05/04 A3022 RMK A01 T00460037  RH  094%=      5-min Rain = 0
KBR1 251034Z 02008KT 05/04 A3022 RMK A01 T00460038  RH  094%=      5-min Rain = 0
KBR1 251035Z 02008KT 05/04 A3022 RMK A01 T00460037  RH  094%=      5-min Rain = 0
KBR1 251036Z 02008KT 05/04 A3022 RMK A01 T00460038  RH  094%=      5-min Rain = 0
KBR1 251037Z 02008KT 05/04 A3022 RMK A01 T00460038  RH  094%=      5-min Rain = 0
KBR1 251038Z 02008KT 05/04 A3023 RMK A01 T00470038  RH  094%=      5-min Rain = 0
KBR1 251039Z 02008KT 05/04 A3023 RMK A01 T00470039  RH  094%=      5-min Rain = 0
KBR1 251040Z 02008KT 05/04 A3023 RMK A01 T00470039  RH  094%=      5-min Rain = 0
KBR1 251041Z 02008KT 05/04 A3023 RMK A01 T00480039  RH  094%=      5-min Rain = 0
KBR1 251042Z 02008KT 05/04 A3023 RMK A01 T00470038  RH  094%=      5-min Rain = 0
KBR1 251043Z 01008KT 05/04 A3023 RMK A01 T00470038  RH  094%=      5-min Rain = 0
KBR1 251044Z 01008KT 05/04 A3023 RMK A01 T00470038  RH  094%=      5-min Rain = 0
KBR1 251045Z 01009KT 05/04 A3023 RMK A01 T00470038  RH  094%=      5-min Rain = 0
KBR1 251046Z 02008KT 05/04 A3023 RMK A01 T00470038  RH  094%=      5-min Rain = 0
KBR1 251047Z 01009KT 05/04 A3023 RMK A01 T00470038  RH  094%=      5-min Rain = 0
KBR1 251048Z 01009KT 05/04 A3023 RMK A01 T00470038  RH  094%=      5-min Rain = 0
KBR1 251049Z 02008KT 05/04 A3023 RMK A01 T00470038  RH  094%=      5-min Rain = 0
KBR1 251050Z 01009KT 05/04 A3023 RMK A01 T00470038  RH  094%=      5-min Rain = 0
KBR1 251051Z 01009KT 05/04 A3023 RMK A01 T00470038  RH  094%=      5-min Rain = 0
KBR1 251052Z 01009KT 05/04 A3023 RMK A01 T00460038  RH  094%=      5-min Rain = 0
KBR1 251053Z 02009KT 05/04 A3023 RMK A01 T00460038  RH  094%=      5-min Rain = 0
KBR1 251054Z 02009KT 05/04 A3023 RMK A01 T00460038  RH  094%=      5-min Rain = 0
KBR1 251055Z 01009KT 05/04 A3023 RMK A01 T00460038  RH  094%=      5-min Rain = 0
KBR1 251056Z 01009KT 05/04 A3023 RMK A01 T00470038  RH  094%=      5-min Rain = 0
KBR1 251057Z 01009KT 05/04 A3023 RMK A01 T00460038  RH  094%=      5-min Rain = 0
KBR1 251058Z 01009KT 05/04 A3023 RMK A01 T00470038  RH  094%=      5-min Rain = 0
KBR1 251059Z 01010KT 05/04 A3023 RMK A01 T00470038  RH  094%=      5-min Rain = 0
KBR1 251100Z 01009KT 05/04 A3023 RMK A01 T00470038  RH  094%=      5-min Rain = 0
KBR1 251101Z 01010KT 05/04 A3023 RMK A01 T00470038  RH  094%=      5-min Rain = 0
KBR1 251102Z 01011KT 05/04 A3023 RMK A01 T00470038  RH  094%=      5-min Rain = 0
KBR1 251103Z 01010KT 05/04 A3023 RMK A01 T00470038  RH  094%=      5-min Rain = 0
KBR1 251104Z 01011KT 05/04 A3023 RMK A01 T00470038  RH  094%=      5-min Rain = 0
KBR1 251105Z 01011KT 05/04 A3023 RMK A01 T00470038  RH  094%=      5-min Rain = 0
KBR1 251106Z 01011KT 05/04 A3024 RMK A01 T00470038  RH  094%=      5-min Rain = 0
KBR1 251107Z 01011KT 05/04 A3024 RMK A01 T00470038  RH  094%=      5-min Rain = 0
KBR1 251108Z 01011KT 05/04 A3024 RMK A01 T00470038  RH  094%=      5-min Rain = 0
KBR1 251109Z 01011KT 05/04 A3024 RMK A01 T00470038  RH  094%=      5-min Rain = 0
KBR1 251110Z 01011KT 05/04 A3024 RMK A01 T00470037  RH  094%=      5-min Rain = 0
KBR1 251111Z 01011KT 05/04 A3024 RMK A01 T00460037  RH  094%=      5-min Rain = 0
KBR1 251112Z 01011KT 05/04 A3024 RMK A01 T00460036  RH  094%=      5-min Rain = 0
KBR1 251113Z 01011KT 05/04 A3024 RMK A01 T00450037  RH  094%=      5-min Rain = 0
KBR1 251114Z 01011KT 05/04 A3024 RMK A01 T00450036  RH  094%=      5-min Rain = 0
KBR1 251115Z 01011KT 05/04 A3024 RMK A01 T00450036  RH  094%=      5-min Rain = 0
KBR1 251116Z 01010KT 05/04 A3024 RMK A01 T00450036  RH  094%=      5-min Rain = 0
KBR1 251117Z 01010KT 05/04 A3024 RMK A01 T00450036  RH  094%=      5-min Rain = 0
KBR1 251118Z 01010KT 05/04 A3024 RMK A01 T00450036  RH  094%=      5-min Rain = 0
KBR1 251119Z 00009KT 04/04 A3024 RMK A01 T00440036  RH  094%=      5-min Rain = 0
KBR1 251120Z 01009KT 04/04 A3024 RMK A01 T00440036  RH  094%=      5-min Rain = 0
KBR1 251121Z 00010KT 04/04 A3024 RMK A01 T00440035  RH  094%=      5-min Rain = 0
KBR1 251122Z 00009KT 04/04 A3024 RMK A01 T00440036  RH  095%=      5-min Rain = 0
KBR1 251123Z 00009KT 04/04 A3024 RMK A01 T00440036  RH  095%=      5-min Rain = 0
KBR1 251124Z 00009KT 04/04 A3024 RMK A01 T00430036  RH  095%=      5-min Rain = 0
KBR1 251125Z 00008KT 04/04 A3024 RMK A01 T00430036  RH  095%=      5-min Rain = 0
KBR1 251126Z 00009KT 04/04 A3024 RMK A01 T00430036  RH  095%=      5-min Rain = 0
KBR1 251127Z 00009KT 04/04 A3025 RMK A01 T00440036  RH  095%=      5-min Rain = 0
KBR1 251128Z 00009KT 04/04 A3025 RMK A01 T00440036  RH  095%=      5-min Rain = 0
KBR1 251129Z 00008KT 04/04 A3025 RMK A01 T00440036  RH  095%=      5-min Rain = 0
KBR1 251130Z 00008KT 04/04 A3025 RMK A01 T00440036  RH  094%=      5-min Rain = 0
KBR1 251131Z 00008KT 04/04 A3025 RMK A01 T00440036  RH  094%=      5-min Rain = 0
KBR1 251132Z 00008KT 04/04 A3025 RMK A01 T00440035  RH  094%=      5-min Rain = 0
KBR1 251133Z 00008KT 04/04 A3025 RMK A01 T00440035  RH  094%=      5-min Rain = 0
KBR1 251134Z 01008KT 04/04 A3025 RMK A01 T00440035  RH  094%=      5-min Rain = 0
KBR1 251135Z 36008KT 04/04 A3025 RMK A01 T00440035  RH  094%=      5-min Rain = 0
KBR1 251136Z 00008KT 04/04 A3025 RMK A01 T00440036  RH  095%=      5-min Rain = 0
KBR1 251137Z 36008KT 04/04 A3025 RMK A01 T00440036  RH  095%=      5-min Rain = 0
KBR1 251138Z 00008KT 04/04 A3025 RMK A01 T00430035  RH  095%=      5-min Rain = 0
KBR1 251139Z 00008KT 04/04 A3025 RMK A01 T00430035  RH  095%=      5-min Rain = 0
KBR1 251140Z 00008KT 04/04 A3025 RMK A01 T00430035  RH  094%=      5-min Rain = 0
KBR1 251141Z 00009KT 04/04 A3025 RMK A01 T00430035  RH  094%=      5-min Rain = 0
KBR1 251142Z 00008KT 04/04 A3025 RMK A01 T00430035  RH  095%=      5-min Rain = 0
KBR1 251143Z 00008KT 04/04 A3025 RMK A01 T00430035  RH  095%=      5-min Rain = 0
KBR1 251144Z 00008KT 04/04 A3025 RMK A01 T00420035  RH  095%=      5-min Rain = 0
KBR1 251145Z 00008KT 04/04 A3025 RMK A01 T00420035  RH  095%=      5-min Rain = 0
KBR1 251146Z 00008KT 04/04 A3025 RMK A01 T00420035  RH  095%=      5-min Rain = 0
KBR1 251147Z 00009KT 04/04 A3025 RMK A01 T00420035  RH  095%=      5-min Rain = 0
KBR1 251148Z 00008KT 04/04 A3025 RMK A01 T00420035  RH  095%=      5-min Rain = 0
KBR1 251149Z 00008KT 04/03 A3025 RMK A01 T00420034  RH  095%=      5-min Rain = 0
KBR1 251150Z 00008KT 04/03 A3025 RMK A01 T00420034  RH  095%=      5-min Rain = 0
KBR1 251151Z 00008KT 04/04 A3025 RMK A01 T00420035  RH  095%=      5-min Rain = 0
KBR1 251152Z 00008KT 04/03 A3025 RMK A01 T00420034  RH  095%=      5-min Rain = 0
KBR1 251153Z 01008KT 04/03 A3025 RMK A01 T00410034  RH  095%=      5-min Rain = 0
KBR1 251154Z 01008KT 04/03 A3025 RMK A01 T00410033  RH  095%=      5-min Rain = 0
KBR1 251155Z 01008KT 04/03 A3025 RMK A01 T00410033  RH  095%=      5-min Rain = 0
KBR1 251156Z 01008KT 04/03 A3025 RMK A01 T00410033  RH  095%=      5-min Rain = 0
KBR1 251157Z 01008KT 04/03 A3025 RMK A01 T00400033  RH  095%=      5-min Rain = 0
KBR1 251158Z 01008KT 04/03 A3025 RMK A01 T00400033  RH  095%=      5-min Rain = 0
KBR1 251159Z 01008KT 04/03 A3025 RMK A01 T00400033  RH  095%=      5-min Rain = 0
KBR1 251200Z 00008KT 04/03 A3025 RMK A01 T00400033  RH  095%=      5-min Rain = 0
KBR1 251201Z 01008KT 04/03 A3025 RMK A01 T00400033  RH  095%=      5-min Rain = 0
KBR1 251202Z 00008KT 04/03 A3025 RMK A01 T00400033  RH  095%=      5-min Rain = 0
KBR1 251203Z 01009KT 04/03 A3025 RMK A01 T00400033  RH  095%=      5-min Rain = 0
KBR1 251204Z 01008KT 04/03 A3025 RMK A01 T00400033  RH  095%=      5-min Rain = 0
KBR1 251205Z 01008KT 04/03 A3025 RMK A01 T00400033  RH  095%=      5-min Rain = 0
KBR1 251206Z 01008KT 04/03 A3025 RMK A01 T00400033  RH  095%=      5-min Rain = 0
KBR1 251207Z 00008KT 04/03 A3025 RMK A01 T00410033  RH  095%=      5-min Rain = 0
KBR1 251208Z 00008KT 04/03 A3025 RMK A01 T00400033  RH  095%=      5-min Rain = 0
KBR1 251209Z 01008KT 04/03 A3025 RMK A01 T00400033  RH  095%=      5-min Rain = 0
KBR1 251210Z 00009KT 04/03 A3025 RMK A01 T00400033  RH  095%=      5-min Rain = 0
KBR1 251211Z 01008KT 04/03 A3025 RMK A01 T00400033  RH  095%=      5-min Rain = 0
KBR1 251212Z 00008KT 04/03 A3025 RMK A01 T00400033  RH  095%=      5-min Rain = 0
KBR1 251213Z 00009KT 04/03 A3025 RMK A01 T00400033  RH  095%=      5-min Rain = 0
KBR1 251214Z 00009KT 04/03 A3025 RMK A01 T00400033  RH  095%=      5-min Rain = 0
KBR1 251215Z 00008KT 04/03 A3026 RMK A01 T00400033  RH  095%=      5-min Rain = 0
KBR1 251216Z 01009KT 04/03 A3026 RMK A01 T00400033  RH  095%=      5-min Rain = 0
KBR1 251217Z 01008KT 04/03 A3026 RMK A01 T00410034  RH  095%=      5-min Rain = 0
KBR1 251218Z 01009KT 04/03 A3026 RMK A01 T00410034  RH  095%=      5-min Rain = 0
KBR1 251219Z 01009KT 04/03 A3026 RMK A01 T00410034  RH  095%=      5-min Rain = 0
KBR1 251220Z 01009KT 04/03 A3026 RMK A01 T00410034  RH  095%=      5-min Rain = 0
KBR1 251221Z 00008KT 04/03 A3026 RMK A01 T00410034  RH  095%=      5-min Rain = 0
KBR1 251222Z 00008KT 04/03 A3026 RMK A01 T00410034  RH  095%=      5-min Rain = 0
KBR1 251223Z 36008KT 04/03 A3026 RMK A01 T00410034  RH  095%=      5-min Rain = 0
KBR1 251224Z 00008KT 04/03 A3026 RMK A01 T00410034  RH  095%=      5-min Rain = 0
KBR1 251225Z 00008KT 04/03 A3026 RMK A01 T00410034  RH  095%=      5-min Rain = 0
KBR1 251226Z 01008KT 04/03 A3026 RMK A01 T00410034  RH  095%=      5-min Rain = 0
KBR1 251227Z 00008KT 04/03 A3026 RMK A01 T00410034  RH  095%=      5-min Rain = 0
KBR1 251228Z 00008KT 04/03 A3026 RMK A01 T00410033  RH  095%=      5-min Rain = 0
KBR1 251229Z 00009KT 04/03 A3026 RMK A01 T00410033  RH  095%=      5-min Rain = 0
KBR1 251230Z 00009KT 04/03 A3026 RMK A01 T00400033  RH  095%=      5-min Rain = 0
KBR1 251231Z 00009KT 04/03 A3026 RMK A01 T00400033  RH  095%=      5-min Rain = 0
KBR1 251232Z 01008KT 04/03 A3026 RMK A01 T00400033  RH  095%=      5-min Rain = 0
KBR1 251233Z 00009KT 04/03 A3027 RMK A01 T00400033  RH  095%=      5-min Rain = 0
KBR1 251234Z 00009KT 04/03 A3027 RMK A01 T00400033  RH  095%=      5-min Rain = 0
KBR1 251235Z 01009KT 04/03 A3027 RMK A01 T00400033  RH  095%=      5-min Rain = 0
KBR1 251236Z 00009KT 04/03 A3027 RMK A01 T00400033  RH  095%=      5-min Rain = 0
KBR1 251237Z 01008KT 04/03 A3027 RMK A01 T00400032  RH  095%=      5-min Rain = 0
KBR1 251238Z 01009KT 04/03 A3027 RMK A01 T00400032  RH  095%=      5-min Rain = 0
KBR1 251239Z 01008KT 04/03 A3027 RMK A01 T00390032  RH  095%=      5-min Rain = 0
KBR1 251240Z 01008KT 04/03 A3027 RMK A01 T00380031  RH  095%=      5-min Rain = 0
KBR1 251241Z 01009KT 04/03 A3027 RMK A01 T00380031  RH  095%=      5-min Rain = 0
KBR1 251242Z 01008KT 04/03 A3027 RMK A01 T00380031  RH  095%=      5-min Rain = 0
KBR1 251243Z 01008KT 04/03 A3027 RMK A01 T00380031  RH  095%=      5-min Rain = 0
KBR1 251244Z 01008KT 04/03 A3027 RMK A01 T00380031  RH  095%=      5-min Rain = 0
KBR1 251245Z 00007KT 04/03 A3027 RMK A01 T00380031  RH  095%=      5-min Rain = 0
KBR1 251246Z 00007KT 04/03 A3027 RMK A01 T00380031  RH  095%=      5-min Rain = 0
KBR1 251247Z 00007KT 04/03 A3027 RMK A01 T00370030  RH  095%=      5-min Rain = 0
KBR1 251248Z 00008KT 04/03 A3027 RMK A01 T00380031  RH  095%=      5-min Rain = 0
KBR1 251249Z 01008KT 04/03 A3027 RMK A01 T00370030  RH  095%=      5-min Rain = 0
KBR1 251250Z 01008KT 04/03 A3027 RMK A01 T00370030  RH  095%=      5-min Rain = 0
KBR1 251251Z 01008KT 04/03 A3027 RMK A01 T00370030  RH  095%=      5-min Rain = 0
KBR1 251252Z 01008KT 04/03 A3027 RMK A01 T00370030  RH  095%=      5-min Rain = 0
KBR1 251253Z 01008KT 04/03 A3027 RMK A01 T00370030  RH  095%=      5-min Rain = 0
KBR1 251254Z 01008KT 04/03 A3027 RMK A01 T00370030  RH  095%=      5-min Rain = 0
KBR1 251255Z 01008KT 04/03 A3027 RMK A01 T00370030  RH  096%=      5-min Rain = 0
KBR1 251256Z 01008KT 04/03 A3027 RMK A01 T00370030  RH  095%=      5-min Rain = 0
KBR1 251257Z 01008KT 04/03 A3027 RMK A01 T00370030  RH  095%=      5-min Rain = 0
KBR1 251258Z 00007KT 04/03 A3027 RMK A01 T00370030  RH  095%=      5-min Rain = 0
KBR1 251259Z 00007KT 04/03 A3027 RMK A01 T00370030  RH  095%=      5-min Rain = 0
KBR1 251300Z 01007KT 04/03 A3027 RMK A01 T00370030  RH  095%=      5-min Rain = 0
KBR1 251301Z 01007KT 04/03 A3028 RMK A01 T00370030  RH  095%=      5-min Rain = 0
KBR1 251302Z 01008KT 04/03 A3028 RMK A01 T00370030  RH  095%=      5-min Rain = 0
KBR1 251303Z 01008KT 04/03 A3028 RMK A01 T00370030  RH  095%=      5-min Rain = 0
KBR1 251304Z 01008KT 04/03 A3028 RMK A01 T00370030  RH  095%=      5-min Rain = 0
KBR1 251305Z 01008KT 04/03 A3028 RMK A01 T00370030  RH  095%=      5-min Rain = 0
KBR1 251306Z 01007KT 04/03 A3028 RMK A01 T00370030  RH  095%=      5-min Rain = 0
KBR1 251307Z 01007KT 04/03 A3028 RMK A01 T00370030  RH  095%=      5-min Rain = 0
KBR1 251308Z 01007KT 04/03 A3028 RMK A01 T00370030  RH  095%=      5-min Rain = 0
KBR1 251309Z 01007KT 04/03 A3028 RMK A01 T00370030  RH  095%=      5-min Rain = 0
KBR1 251310Z 01007KT 04/03 A3028 RMK A01 T00370030  RH  095%=      5-min Rain = 0
KBR1 251311Z 01008KT 04/03 A3028 RMK A01 T00380031  RH  095%=      5-min Rain = 0
KBR1 251312Z 01008KT 04/03 A3028 RMK A01 T00380031  RH  095%=      5-min Rain = 0
KBR1 251313Z 02008KT 04/03 A3028 RMK A01 T00380031  RH  095%=      5-min Rain = 0
KBR1 251314Z 02008KT 04/03 A3028 RMK A01 T00380031  RH  095%=      5-min Rain = 0
KBR1 251315Z 02008KT 04/03 A3028 RMK A01 T00380031  RH  095%=      5-min Rain = 0
KBR1 251316Z 02008KT 04/03 A3028 RMK A01 T00380032  RH  095%=      5-min Rain = 0
KBR1 251317Z 02008KT 04/03 A3028 RMK A01 T00390032  RH  095%=      5-min Rain = 0
KBR1 251318Z 02009KT 04/03 A3028 RMK A01 T00390032  RH  095%=      5-min Rain = 0
KBR1 251319Z 02008KT 04/03 A3028 RMK A01 T00390032  RH  095%=      5-min Rain = 0
KBR1 251320Z 03007KT 04/03 A3029 RMK A01 T00390033  RH  095%=      5-min Rain = 0
KBR1 251321Z 03007KT 04/03 A3029 RMK A01 T00400033  RH  095%=      5-min Rain = 0
KBR1 251322Z 02008KT 04/03 A3029 RMK A01 T00400034  RH  096%=      5-min Rain = 0
KBR1 251323Z 03008KT 04/04 A3029 RMK A01 T00410035  RH  096%=      5-min Rain = 0
KBR1 251324Z 03009KT 04/04 A3029 RMK A01 T00430037  RH  096%=      5-min Rain = 0
KBR1 251325Z 03009KT 04/04 A3029 RMK A01 T00440039  RH  096%=      5-min Rain = 0
KBR1 251326Z 02008KT 05/04 A3029 RMK A01 T00450040  RH  096%=      5-min Rain = 0
KBR1 251327Z 02007KT 05/04 A3029 RMK A01 T00460040  RH  096%=      5-min Rain = 0
KBR1 251328Z 02007KT 05/04 A3029 RMK A01 T00460040  RH  096%=      5-min Rain = 0
KBR1 251329Z 02007KT 05/04 A3029 RMK A01 T00460040  RH  096%=      5-min Rain = 0
KBR1 251330Z 02007KT 05/04 A3029 RMK A01 T00470041  RH  096%=      5-min Rain = 0
KBR1 251331Z 03007KT 05/04 A3029 RMK A01 T00470042  RH  096%=      5-min Rain = 0
KBR1 251332Z 03007KT 05/04 A303 RMK A01 T00480042  RH  096%=      5-min Rain = 0
KBR1 251333Z 04007KT 05/04 A303 RMK A01 T00490043  RH  096%=      5-min Rain = 0
KBR1 251334Z 04008KT 05/04 A303 RMK A01 T00490044  RH  096%=      5-min Rain = 0
KBR1 251335Z 03006KT 05/04 A303 RMK A01 T00490044  RH  096%=      5-min Rain = 0
KBR1 251336Z 03007KT 05/04 A303 RMK A01 T00500044  RH  096%=      5-min Rain = 0
KBR1 251337Z 03007KT 05/05 A303 RMK A01 T00510045  RH  096%=      5-min Rain = 0
KBR1 251338Z 03008KT 05/05 A303 RMK A01 T00510046  RH  097%=      5-min Rain = 0
KBR1 251339Z 02007KT 05/05 A303 RMK A01 T00510046  RH  097%=      5-min Rain = 0
KBR1 251340Z 03007KT 05/05 A303 RMK A01 T00510046  RH  097%=      5-min Rain = 0
KBR1 251341Z 03007KT 05/05 A303 RMK A01 T00510046  RH  097%=      5-min Rain = 0
KBR1 251342Z 04007KT 05/05 A303 RMK A01 T00520047  RH  096%=      5-min Rain = 0
KBR1 251343Z 03008KT 05/05 A303 RMK A01 T00520047  RH  096%=      5-min Rain = 0
KBR1 251344Z 03007KT 05/05 A303 RMK A01 T00520046  RH  096%=      5-min Rain = 0
KBR1 251345Z 03008KT 05/05 A303 RMK A01 T00520046  RH  096%=      5-min Rain = 0
KBR1 251346Z 03008KT 05/05 A303 RMK A01 T00520046  RH  096%=      5-min Rain = 0
KBR1 251347Z 03008KT 05/05 A303 RMK A01 T00520046  RH  096%=      5-min Rain = 0
KBR1 251348Z 03007KT 05/05 A303 RMK A01 T00520046  RH  096%=      5-min Rain = 0
KBR1 251349Z 03008KT 05/05 A303 RMK A01 T00520046  RH  096%=      5-min Rain = 0
KBR1 251350Z 03008KT 05/05 A303 RMK A01 T00520046  RH  096%=      5-min Rain = 0
KBR1 251351Z 03008KT 05/05 A303 RMK A01 T00520046  RH  096%=      5-min Rain = 0
KBR1 251352Z 03008KT 05/05 A303 RMK A01 T00530047  RH  096%=      5-min Rain = 0
KBR1 251353Z 03008KT 05/05 A303 RMK A01 T00530047  RH  096%=      5-min Rain = 0
KBR1 251354Z 03008KT 05/05 A303 RMK A01 T00530047  RH  096%=      5-min Rain = 0
KBR1 251355Z 03007KT 05/05 A303 RMK A01 T00530048  RH  096%=      5-min Rain = 0
KBR1 251356Z 03006KT 05/05 A303 RMK A01 T00530048  RH  096%=      5-min Rain = 0
KBR1 251357Z 03007KT 05/05 A303 RMK A01 T00540048  RH  096%=      5-min Rain = 0
KBR1 251358Z 03007KT 05/05 A303 RMK A01 T00540049  RH  096%=      5-min Rain = 0
KBR1 251359Z 03007KT 05/05 A3031 RMK A01 T00540049  RH  096%=      5-min Rain = 0
KBR1 251400Z 03008KT 05/05 A3031 RMK A01 T00540049  RH  096%=      5-min Rain = 0
KBR1 251401Z 04007KT 05/05 A3031 RMK A01 T00540049  RH  096%=      5-min Rain = 0
KBR1 251402Z 04005KT 06/05 A3031 RMK A01 T00550050  RH  096%=      5-min Rain = 0
KBR1 251403Z 04007KT 06/05 A3031 RMK A01 T00560051  RH  097%=      5-min Rain = 0
KBR1 251404Z 04008KT 06/05 A3031 RMK A01 T00560051  RH  097%=      5-min Rain = 0
KBR1 251405Z 05006KT 06/05 A3031 RMK A01 T00560051  RH  096%=      5-min Rain = 0
KBR1 251406Z 05007KT 06/05 A3031 RMK A01 T00570052  RH  097%=      5-min Rain = 0
KBR1 251407Z 04006KT 06/05 A3031 RMK A01 T00570052  RH  097%=      5-min Rain = 0
KBR1 251408Z 04006KT 06/05 A3031 RMK A01 T00570052  RH  096%=      5-min Rain = 0
KBR1 251409Z 04007KT 06/05 A3031 RMK A01 T00570052  RH  096%=      5-min Rain = 0
KBR1 251410Z 05007KT 06/05 A3031 RMK A01 T00570052  RH  096%=      5-min Rain = 0
KBR1 251411Z 05007KT 06/05 A3031 RMK A01 T00570052  RH  096%=      5-min Rain = 0
KBR1 251412Z 05007KT 06/05 A3031 RMK A01 T00580052  RH  096%=      5-min Rain = 0
KBR1 251413Z 05009KT 06/05 A3031 RMK A01 T00580052  RH  096%=      5-min Rain = 0
KBR1 251414Z 04008KT 06/05 A3031 RMK A01 T00570051  RH  096%=      5-min Rain = 0
KBR1 251415Z 05008KT 06/05 A3031 RMK A01 T00570051  RH  096%=      5-min Rain = 0
KBR1 251416Z 05007KT 06/05 A3031 RMK A01 T00570051  RH  096%=      5-min Rain = 0
KBR1 251417Z 04006KT 06/05 A3031 RMK A01 T00570051  RH  096%=      5-min Rain = 0
KBR1 251418Z 05006KT 06/05 A3031 RMK A01 T00590052  RH  096%=      5-min Rain = 0
KBR1 251419Z 05006KT 06/05 A3031 RMK A01 T00590052  RH  096%=      5-min Rain = 0
KBR1 251420Z 05007KT 06/05 A3031 RMK A01 T00600053  RH  096%=      5-min Rain = 0
KBR1 251421Z 05007KT 06/05 A3031 RMK A01 T00590053  RH  096%=      5-min Rain = 0
KBR1 251422Z 05006KT 06/05 A3031 RMK A01 T00600053  RH  096%=      5-min Rain = 0
KBR1 251423Z 05007KT 06/05 A3031 RMK A01 T00600054  RH  096%=      5-min Rain = 0
KBR1 251424Z 05008KT 06/05 A3032 RMK A01 T00600053  RH  095%=      5-min Rain = 0
KBR1 251425Z 05007KT 06/05 A3032 RMK A01 T00600053  RH  095%=      5-min Rain = 0
KBR1 251426Z 05007KT 06/05 A3032 RMK A01 T00600053  RH  095%=      5-min Rain = 0
KBR1 251427Z 05007KT 06/05 A3032 RMK A01 T00610053  RH  095%=      5-min Rain = 0
KBR1 251428Z 05009KT 06/05 A3032 RMK A01 T00600053  RH  095%=      5-min Rain = 0
KBR1 251429Z 05007KT 06/05 A3032 RMK A01 T00600053  RH  095%=      5-min Rain = 0
KBR1 251430Z 05008KT 06/05 A3032 RMK A01 T00600053  RH  095%=      5-min Rain = 0
KBR1 251431Z 06007KT 06/05 A3032 RMK A01 T00600052  RH  095%=      5-min Rain = 0
KBR1 251432Z 05008KT 06/05 A3032 RMK A01 T00600052  RH  095%=      5-min Rain = 0
KBR1 251433Z 05007KT 06/05 A3032 RMK A01 T00600052  RH  095%=      5-min Rain = 0
KBR1 251434Z 06008KT 06/05 A3032 RMK A01 T00600052  RH  095%=      5-min Rain = 0
KBR1 251435Z 05007KT 06/05 A3032 RMK A01 T00600052  RH  095%=      5-min Rain = 0
KBR1 251436Z 05008KT 06/05 A3032 RMK A01 T00600052  RH  095%=      5-min Rain = 0
KBR1 251437Z 06008KT 06/05 A3032 RMK A01 T00600053  RH  095%=      5-min Rain = 0
KBR1 251438Z 06007KT 06/05 A3032 RMK A01 T00600052  RH  095%=      5-min Rain = 0
KBR1 251439Z 05007KT 06/05 A3032 RMK A01 T00610053  RH  095%=      5-min Rain = 0
KBR1 251440Z 06008KT 06/05 A3032 RMK A01 T00610054  RH  095%=      5-min Rain = 0
KBR1 251441Z 06008KT 06/05 A3032 RMK A01 T00610053  RH  094%=      5-min Rain = 0
KBR1 251442Z 05007KT 06/05 A3032 RMK A01 T00610053  RH  095%=      5-min Rain = 0
KBR1 251443Z 05007KT 06/05 A3032 RMK A01 T00610053  RH  095%=      5-min Rain = 0
KBR1 251444Z 05007KT 06/06 A3032 RMK A01 T00620055  RH  095%=      5-min Rain = 0
KBR1 251445Z 05007KT 06/06 A3032 RMK A01 T00620055  RH  095%=      5-min Rain = 0
KBR1 251446Z 05006KT 06/06 A3032 RMK A01 T00630055  RH  095%=      5-min Rain = 0
KBR1 251447Z 05008KT 06/06 A3032 RMK A01 T00640057  RH  095%=      5-min Rain = 0
KBR1 251448Z 05008KT 06/06 A3032 RMK A01 T00640056  RH  095%=      5-min Rain = 0
KBR1 251449Z 04007KT 06/05 A3032 RMK A01 T00630054  RH  094%=      5-min Rain = 0
KBR1 251450Z 05007KT 06/05 A3032 RMK A01 T00620054  RH  094%=      5-min Rain = 0
KBR1 251451Z 05007KT 06/05 A3032 RMK A01 T00620054  RH  094%=      5-min Rain = 0
KBR1 251452Z 05008KT 06/06 A3032 RMK A01 T00630055  RH  095%=      5-min Rain = 0
KBR1 251453Z 05008KT 06/06 A3032 RMK A01 T00630055  RH  095%=      5-min Rain = 0
KBR1 251454Z 06008KT 06/06 A3032 RMK A01 T00630056  RH  095%=      5-min Rain = 0
KBR1 251455Z 06008KT 06/06 A3032 RMK A01 T00630055  RH  095%=      5-min Rain = 0
KBR1 251456Z 06008KT 06/06 A3032 RMK A01 T00640056  RH  095%=      5-min Rain = 0
KBR1 251457Z 05008KT 06/06 A3032 RMK A01 T00640056  RH  095%=      5-min Rain = 0
KBR1 251458Z 05007KT 06/06 A3032 RMK A01 T00640056  RH  095%=      5-min Rain = 0
KBR1 251459Z 06006KT 07/06 A3032 RMK A01 T00650056  RH  095%=      5-min Rain = 0
KBR1 251500Z 06007KT 07/06 A3032 RMK A01 T00650056  RH  094%=      5-min Rain = 0
KBR1 251501Z 07007KT 07/06 A3032 RMK A01 T00650056  RH  094%=      5-min Rain = 0
KBR1 251502Z 07006KT 07/06 A3032 RMK A01 T00650056  RH  094%=      5-min Rain = 0
KBR1 251503Z 06006KT 06/06 A3032 RMK A01 T00640056  RH  094%=      5-min Rain = 0
KBR1 251504Z 05006KT 07/06 A3032 RMK A01 T00650056  RH  094%=      5-min Rain = 0
KBR1 251505Z 05006KT 07/06 A3032 RMK A01 T00650056  RH  094%=      5-min Rain = 0
KBR1 251506Z 06005KT 07/06 A3032 RMK A01 T00650057  RH  094%=      5-min Rain = 0
KBR1 251507Z 05008KT 07/06 A3032 RMK A01 T00660057  RH  094%=      5-min Rain = 0
KBR1 251508Z 06007KT 07/06 A3032 RMK A01 T00660057  RH  094%=      5-min Rain = 0
KBR1 251509Z 08007KT 07/06 A3032 RMK A01 T00660058  RH  094%=      5-min Rain = 0
KBR1 251510Z 08006KT 07/06 A3032 RMK A01 T00660057  RH  094%=      5-min Rain = 0
KBR1 251511Z 07005KT 07/06 A3032 RMK A01 T00650055  RH  093%=      5-min Rain = 0
KBR1 251512Z 07006KT 07/06 A3033 RMK A01 T00660056  RH  094%=      5-min Rain = 0
KBR1 251513Z 06006KT 07/06 A3032 RMK A01 T00660056  RH  093%=      5-min Rain = 0
KBR1 251514Z 06006KT 07/06 A3033 RMK A01 T00660056  RH  093%=      5-min Rain = 0
KBR1 251515Z 06005KT 07/06 A3033 RMK A01 T00660055  RH  093%=      5-min Rain = 0
KBR1 251516Z 06006KT 07/05 A3033 RMK A01 T00660054  RH  093%=      5-min Rain = 0
KBR1 251517Z 06007KT 07/06 A3033 RMK A01 T00660055  RH  093%=      5-min Rain = 0
KBR1 251518Z 07007KT 07/06 A3033 RMK A01 T00660056  RH  093%=      5-min Rain = 0
KBR1 251519Z 08006KT 07/06 A3033 RMK A01 T00670056  RH  093%=      5-min Rain = 0
KBR1 251520Z 08005KT 07/06 A3033 RMK A01 T00670056  RH  093%=      5-min Rain = 0
KBR1 251521Z 05005KT 07/06 A3033 RMK A01 T00670056  RH  093%=      5-min Rain = 0
KBR1 251522Z 06005KT 07/06 A3033 RMK A01 T00670057  RH  093%=      5-min Rain = 0
KBR1 251523Z 06004KT 07/06 A3033 RMK A01 T00670056  RH  093%=      5-min Rain = 0
KBR1 251524Z 07006KT 07/06 A3033 RMK A01 T00680058  RH  093%=      5-min Rain = 0
KBR1 251525Z 08006KT 07/06 A3033 RMK A01 T00690057  RH  093%=      5-min Rain = 0
KBR1 251526Z 07006KT 07/06 A3033 RMK A01 T00690057  RH  092%=      5-min Rain = 0
KBR1 251527Z 07005KT 07/06 A3033 RMK A01 T00690056  RH  092%=      5-min Rain = 0
KBR1 251528Z 06004KT 07/05 A3033 RMK A01 T00680054  RH  091%=      5-min Rain = 0
KBR1 251529Z 06004KT 07/06 A3033 RMK A01 T00680055  RH  091%=      5-min Rain = 0
KBR1 251530Z 05004KT 07/06 A3033 RMK A01 T00680055  RH  091%=      5-min Rain = 0
KBR1 251531Z 05005KT 07/05 A3033 RMK A01 T00680054  RH  091%=      5-min Rain = 0
KBR1 251532Z 05005KT 07/06 A3033 RMK A01 T00680055  RH  092%=      5-min Rain = 0
KBR1 251533Z 05005KT 07/06 A3033 RMK A01 T00680056  RH  092%=      5-min Rain = 0
KBR1 251534Z 05006KT 07/06 A3033 RMK A01 T00700057  RH  092%=      5-min Rain = 0
KBR1 251535Z 05005KT 07/06 A3033 RMK A01 T00700057  RH  091%=      5-min Rain = 0
KBR1 251536Z 05005KT 07/06 A3033 RMK A01 T00700057  RH  091%=      5-min Rain = 0
KBR1 251537Z 05004KT 07/06 A3033 RMK A01 T00700055  RH  090%=      5-min Rain = 0
KBR1 251538Z 07004KT 07/06 A3033 RMK A01 T00700056  RH  090%=      5-min Rain = 0
KBR1 251539Z 07005KT 07/06 A3033 RMK A01 T00710056  RH  090%=      5-min Rain = 0
KBR1 251540Z 07004KT 07/06 A3033 RMK A01 T00710056  RH  090%=      5-min Rain = 0
KBR1 251541Z 06004KT 07/06 A3033 RMK A01 T00710056  RH  090%=      5-min Rain = 0
KBR1 251542Z 07003KT 07/06 A3033 RMK A01 T00710056  RH  090%=      5-min Rain = 0
KBR1 251543Z 08003KT 07/06 A3033 RMK A01 T00720057  RH  091%=      5-min Rain = 0
KBR1 251544Z 05004KT 07/06 A3033 RMK A01 T00730058  RH  091%=      5-min Rain = 0
KBR1 251545Z 05005KT 07/06 A3033 RMK A01 T00730056  RH  089%=      5-min Rain = 0
KBR1 251546Z 06005KT 07/06 A3033 RMK A01 T00730058  RH  090%=      5-min Rain = 0
KBR1 251547Z 05004KT 07/06 A3034 RMK A01 T00730057  RH  090%=      5-min Rain = 0
KBR1 251548Z 08004KT 07/06 A3034 RMK A01 T00740060  RH  091%=      5-min Rain = 0
KBR1 251549Z 08004KT 08/06 A3034 RMK A01 T00760061  RH  090%=      5-min Rain = 0
KBR1 251550Z 07003KT 08/06 A3034 RMK A01 T00760058  RH  088%=      5-min Rain = 0
KBR1 251551Z 06004KT 08/06 A3034 RMK A01 T00760058  RH  088%=      5-min Rain = 0
KBR1 251552Z 06003KT 08/06 A3034 RMK A01 T00760058  RH  089%=      5-min Rain = 0
KBR1 251553Z 05003KT 08/06 A3034 RMK A01 T00760059  RH  089%=      5-min Rain = 0
KBR1 251554Z 04003KT 08/06 A3034 RMK A01 T00770059  RH  088%=      5-min Rain = 0
KBR1 251555Z 06004KT 08/06 A3034 RMK A01 T00770060  RH  089%=      5-min Rain = 0
KBR1 251556Z 06005KT 08/06 A3034 RMK A01 T00770059  RH  088%=      5-min Rain = 0
KBR1 251557Z 07003KT 08/06 A3034 RMK A01 T00770058  RH  088%=      5-min Rain = 0
KBR1 251558Z 05003KT 08/06 A3034 RMK A01 T00760057  RH  088%=      5-min Rain = 0
KBR1 251559Z 06003KT 08/06 A3034 RMK A01 T00760058  RH  088%=      5-min Rain = 0
KBR1 251600Z 10002KT 08/06 A3034 RMK A01 T00770059  RH  088%=      5-min Rain = 0
KBR1 251601Z 09003KT 08/06 A3034 RMK A01 T00780059  RH  088%=      5-min Rain = 0
KBR1 251602Z 07002KT 08/06 A3034 RMK A01 T00780057  RH  086%=      5-min Rain = 0
KBR1 251603Z 06001KT 08/06 A3034 RMK A01 T00790056  RH  086%=      5-min Rain = 0
KBR1 251604Z 07002KT 08/06 A3034 RMK A01 T00790055  RH  085%=      5-min Rain = 0
KBR1 251605Z 08004KT 08/06 A3034 RMK A01 T00790057  RH  086%=      5-min Rain = 0
KBR1 251606Z 07004KT 08/06 A3034 RMK A01 T00800058  RH  087%=      5-min Rain = 0
KBR1 251607Z 06005KT 08/06 A3034 RMK A01 T00790060  RH  087%=      5-min Rain = 0
KBR1 251608Z 08003KT 08/06 A3034 RMK A01 T00790058  RH  087%=      5-min Rain = 0
KBR1 251609Z 12002KT 08/06 A3034 RMK A01 T00800059  RH  087%=      5-min Rain = 0
KBR1 251610Z 09002KT 08/06 A3034 RMK A01 T00800060  RH  087%=      5-min Rain = 0
KBR1 251611Z 05003KT 08/06 A3034 RMK A01 T00810061  RH  087%=      5-min Rain = 0
KBR1 251612Z 06002KT 08/06 A3034 RMK A01 T00810059  RH  086%=      5-min Rain = 0
KBR1 251613Z 10002KT 08/06 A3034 RMK A01 T00810057  RH  085%=      5-min Rain = 0
KBR1 251614Z 10003KT 08/06 A3034 RMK A01 T00810058  RH  085%=      5-min Rain = 0
KBR1 251615Z 13002KT 08/06 A3034 RMK A01 T00810058  RH  085%=      5-min Rain = 0
KBR1 251616Z 14003KT 08/06 A3034 RMK A01 T00830061  RH  086%=      5-min Rain = 0
KBR1 251617Z 13004KT 08/06 A3034 RMK A01 T00840060  RH  085%=      5-min Rain = 0
KBR1 251618Z 13003KT 09/06 A3034 RMK A01 T00860061  RH  084%=      5-min Rain = 0
KBR1 251619Z 09003KT 09/06 A3034 RMK A01 T00870060  RH  083%=      5-min Rain = 0
KBR1 251620Z 07004KT 09/06 A3034 RMK A01 T00860060  RH  083%=      5-min Rain = 0
KBR1 251621Z 08004KT 09/06 A3034 RMK A01 T00860059  RH  083%=      5-min Rain = 0
KBR1 251622Z 06003KT 09/06 A3034 RMK A01 T00850056  RH  082%=      5-min Rain = 0
KBR1 251623Z 08004KT 08/06 A3034 RMK A01 T00840057  RH  083%=      5-min Rain = 0
KBR1 251624Z 08004KT 08/06 A3034 RMK A01 T00840060  RH  085%=      5-min Rain = 0
KBR1 251625Z 07004KT 09/06 A3034 RMK A01 T00850058  RH  084%=      5-min Rain = 0
KBR1 251626Z 06003KT 08/06 A3034 RMK A01 T00840056  RH  083%=      5-min Rain = 0
KBR1 251627Z 04003KT 08/06 A3034 RMK A01 T00840058  RH  084%=      5-min Rain = 0
KBR1 251628Z 04003KT 09/06 A3034 RMK A01 T00850058  RH  084%=      5-min Rain = 0
KBR1 251629Z 03002KT 09/06 A3034 RMK A01 T00850059  RH  083%=      5-min Rain = 0
KBR1 251630Z 03003KT 09/06 A3034 RMK A01 T00860059  RH  084%=      5-min Rain = 0
KBR1 251631Z 04004KT 09/06 A3034 RMK A01 T00870061  RH  084%=      5-min Rain = 0
KBR1 251632Z 05003KT 09/06 A3034 RMK A01 T00880060  RH  083%=      5-min Rain = 0
KBR1 251633Z 03003KT 09/06 A3034 RMK A01 T00880059  RH  082%=      5-min Rain = 0
KBR1 251634Z 04003KT 09/06 A3034 RMK A01 T00880058  RH  082%=      5-min Rain = 0
KBR1 251635Z 03003KT 09/06 A3034 RMK A01 T00880059  RH  082%=      5-min Rain = 0
KBR1 251636Z 04003KT 09/06 A3034 RMK A01 T00890060  RH  082%=      5-min Rain = 0
KBR1 251637Z 05002KT 09/06 A3034 RMK A01 T00910062  RH  082%=      5-min Rain = 0
KBR1 251638Z 03002KT 09/06 A3034 RMK A01 T00920059  RH  080%=      5-min Rain = 0
KBR1 251639Z 07003KT 10/07 A3034 RMK A01 T00960065  RH  081%=      5-min Rain = 0
KBR1 251640Z 07002KT 10/06 A3034 RMK A01 T00990063  RH  078%=      5-min Rain = 0
KBR1 251641Z 10003KT 10/06 A3034 RMK A01 T01010063  RH  077%=      5-min Rain = 0
KBR1 251642Z 09004KT 10/06 A3034 RMK A01 T01020060  RH  075%=      5-min Rain = 0
KBR1 251643Z 10003KT 10/06 A3034 RMK A01 T01000057  RH  075%=      5-min Rain = 0
KBR1 251644Z 13005KT 10/06 A3034 RMK A01 T00980058  RH  076%=      5-min Rain = 0
KBR1 251645Z 12005KT 10/06 A3034 RMK A01 T01010062  RH  077%=      5-min Rain = 0
KBR1 251646Z 12005KT 10/06 A3034 RMK A01 T01020061  RH  076%=      5-min Rain = 0
KBR1 251647Z 13005KT 10/06 A3034 RMK A01 T01020063  RH  076%=      5-min Rain = 0
KBR1 251648Z 08005KT 11/07 A3034 RMK A01 T01050065  RH  076%=      5-min Rain = 0
KBR1 251649Z 09006KT 11/06 A3034 RMK A01 T01070061  RH  073%=      5-min Rain = 0
KBR1 251650Z 11005KT 11/06 A3034 RMK A01 T01050058  RH  073%=      5-min Rain = 0
KBR1 251651Z 10002KT 10/05 A3034 RMK A01 T01010054  RH  073%=      5-min Rain = 0
KBR1 251652Z 16003KT 10/06 A3034 RMK A01 T00980056  RH  075%=      5-min Rain = 0
KBR1 251653Z 14002KT 10/06 A3034 RMK A01 T00970056  RH  075%=      5-min Rain = 0
KBR1 251654Z 15001KT 10/06 A3034 RMK A01 T00970057  RH  076%=      5-min Rain = 0
KBR1 251655Z 17003KT 10/06 A3034 RMK A01 T00990059  RH  076%=      5-min Rain = 0
KBR1 251656Z 12004KT 10/06 A3034 RMK A01 T01020061  RH  076%=      5-min Rain = 0
KBR1 251657Z 10002KT 10/06 A3034 RMK A01 T01030057  RH  073%=      5-min Rain = 0
KBR1 251658Z 03001KT 10/06 A3034 RMK A01 T01030057  RH  073%=      5-min Rain = 0
KBR1 251659Z 16000KT 11/06 A3034 RMK A01 T01050057  RH  072%=      5-min Rain = 0
KBR1 251700Z 12004KT 11/06 A3034 RMK A01 T01050059  RH  073%=      5-min Rain = 0
KBR1 251701Z 13005KT 11/06 A3034 RMK A01 T01090062  RH  073%=      5-min Rain = 0
KBR1 251702Z 14005KT 11/06 A3034 RMK A01 T01100059  RH  071%=      5-min Rain = 0
KBR1 251703Z 13006KT 11/06 A3034 RMK A01 T01100057  RH  070%=      5-min Rain = 0
KBR1 251704Z 15005KT 11/06 A3034 RMK A01 T01080057  RH  071%=      5-min Rain = 0
KBR1 251705Z 16005KT 11/06 A3034 RMK A01 T01090060  RH  072%=      5-min Rain = 0
KBR1 251706Z 17004KT 11/06 A3034 RMK A01 T01100060  RH  071%=      5-min Rain = 0
KBR1 251707Z 12004KT 11/06 A3034 RMK A01 T01110060  RH  071%=      5-min Rain = 0
KBR1 251708Z 09003KT 11/06 A3034 RMK A01 T01110058  RH  070%=      5-min Rain = 0
KBR1 251709Z 13005KT 11/06 A3033 RMK A01 T01110062  RH  072%=      5-min Rain = 0
KBR1 251710Z 13002KT 11/06 A3034 RMK A01 T01120060  RH  070%=      5-min Rain = 0
KBR1 251711Z 29000KT 11/06 A3033 RMK A01 T01100056  RH  069%=      5-min Rain = 0
KBR1 251712Z 12003KT 11/06 A3033 RMK A01 T01100059  RH  071%=      5-min Rain = 0
KBR1 251713Z 11004KT 11/06 A3033 RMK A01 T01120061  RH  071%=      5-min Rain = 0
KBR1 251714Z 15004KT 11/06 A3033 RMK A01 T01130060  RH  070%=      5-min Rain = 0
KBR1 251715Z 13003KT 11/06 A3033 RMK A01 T01130060  RH  070%=      5-min Rain = 0
KBR1 251716Z 12007KT 11/06 A3033 RMK A01 T01130060  RH  070%=      5-min Rain = 0
KBR1 251717Z 14004KT 11/06 A3033 RMK A01 T01110057  RH  069%=      5-min Rain = 0
KBR1 251718Z 15005KT 11/06 A3033 RMK A01 T01090058  RH  070%=      5-min Rain = 0
KBR1 251719Z 14008KT 11/06 A3033 RMK A01 T01110059  RH  071%=      5-min Rain = 0
KBR1 251720Z 15004KT 11/06 A3033 RMK A01 T01120058  RH  069%=      5-min Rain = 0
KBR1 251721Z 12004KT 11/06 A3033 RMK A01 T01120057  RH  069%=      5-min Rain = 0
KBR1 251722Z 14008KT 11/06 A3033 RMK A01 T01120057  RH  069%=      5-min Rain = 0
KBR1 251723Z 16006KT 11/06 A3033 RMK A01 T01100057  RH  070%=      5-min Rain = 0
KBR1 251724Z 12006KT 11/06 A3033 RMK A01 T01100061  RH  071%=      5-min Rain = 0
KBR1 251725Z 11005KT 11/06 A3033 RMK A01 T01120059  RH  070%=      5-min Rain = 0
KBR1 251726Z 14008KT 11/06 A3033 RMK A01 T01130064  RH  072%=      5-min Rain = 0
KBR1 251727Z 12009KT 12/07 A3033 RMK A01 T01160065  RH  071%=      5-min Rain = 0
KBR1 251728Z 13005KT 12/06 A3033 RMK A01 T01150060  RH  069%=      5-min Rain = 0
KBR1 251729Z 09004KT 11/06 A3033 RMK A01 T01130060  RH  070%=      5-min Rain = 0
KBR1 251730Z 07003KT 11/06 A3033 RMK A01 T01130061  RH  070%=      5-min Rain = 0
KBR1 251731Z 13003KT 11/06 A3033 RMK A01 T01140064  RH  071%=      5-min Rain = 0
KBR1 251732Z 14005KT 12/06 A3033 RMK A01 T01160062  RH  069%=      5-min Rain = 0
KBR1 251733Z 15006KT 12/06 A3033 RMK A01 T01160061  RH  069%=      5-min Rain = 0
KBR1 251734Z 14005KT 12/06 A3033 RMK A01 T01150061  RH  069%=      5-min Rain = 0
KBR1 251735Z 15008KT 12/07 A3033 RMK A01 T01160065  RH  071%=      5-min Rain = 0
KBR1 251736Z 13007KT 12/06 A3033 RMK A01 T01170062  RH  069%=      5-min Rain = 0
KBR1 251737Z 15006KT 12/06 A3033 RMK A01 T01160061  RH  069%=      5-min Rain = 0
KBR1 251738Z 12006KT 12/06 A3033 RMK A01 T01150063  RH  070%=      5-min Rain = 0
KBR1 251739Z 13008KT 12/06 A3033 RMK A01 T01170064  RH  070%=      5-min Rain = 0
KBR1 251740Z 13005KT 12/06 A3033 RMK A01 T01150059  RH  068%=      5-min Rain = 0
KBR1 251741Z 12005KT 11/06 A3033 RMK A01 T01110059  RH  070%=      5-min Rain = 0
KBR1 251742Z 11002KT 11/06 A3033 RMK A01 T01110060  RH  071%=      5-min Rain = 0
KBR1 251743Z 09002KT 11/06 A3033 RMK A01 T01090059  RH  071%=      5-min Rain = 0
KBR1 251744Z 13003KT 11/06 A3033 RMK A01 T01090059  RH  071%=      5-min Rain = 0
KBR1 251745Z 14002KT 11/06 A3033 RMK A01 T01110061  RH  072%=      5-min Rain = 0
KBR1 251746Z 11003KT 11/06 A3033 RMK A01 T01120060  RH  070%=      5-min Rain = 0
KBR1 251747Z 13002KT 11/06 A3033 RMK A01 T01130060  RH  070%=      5-min Rain = 0
KBR1 251748Z 11006KT 12/07 A3033 RMK A01 T01160066  RH  071%=      5-min Rain = 0
KBR1 251749Z 10008KT 12/06 A3033 RMK A01 T01190064  RH  069%=      5-min Rain = 0
KBR1 251750Z 10005KT 12/06 A3033 RMK A01 T01190064  RH  069%=      5-min Rain = 0
KBR1 251751Z 09005KT 12/06 A3033 RMK A01 T01180064  RH  069%=      5-min Rain = 0
KBR1 251752Z 07004KT 12/06 A3033 RMK A01 T01190064  RH  069%=      5-min Rain = 0
KBR1 251753Z 10004KT 12/07 A3033 RMK A01 T01190065  RH  069%=      5-min Rain = 0
KBR1 251754Z 14009KT 12/07 A3033 RMK A01 T01210066  RH  069%=      5-min Rain = 0
KBR1 251755Z 15007KT 12/06 A3033 RMK A01 T01190059  RH  067%=      5-min Rain = 0
KBR1 251756Z 14008KT 12/07 A3033 RMK A01 T01200065  RH  069%=      5-min Rain = 0
KBR1 251757Z 14006KT 12/06 A3032 RMK A01 T01220064  RH  068%=      5-min Rain = 0
KBR1 251758Z 13004KT 12/06 A3032 RMK A01 T01220058  RH  065%=      5-min Rain = 0
KBR1 251759Z 13003KT 12/06 A3032 RMK A01 T01190057  RH  066%=      5-min Rain = 0
KBR1 251800Z 13004KT 12/06 A3032 RMK A01 T01190059  RH  067%=      5-min Rain = 0
KBR1 251801Z 12005KT 12/06 A3032 RMK A01 T01180057  RH  066%=      5-min Rain = 0
KBR1 251802Z 14004KT 12/06 A3032 RMK A01 T01170060  RH  068%=      5-min Rain = 0
KBR1 251803Z 11004KT 12/06 A3032 RMK A01 T01160063  RH  070%=      5-min Rain = 0
KBR1 251804Z 09005KT 12/06 A3032 RMK A01 T01160062  RH  069%=      5-min Rain = 0
KBR1 251805Z 08007KT 12/06 A3032 RMK A01 T01170064  RH  070%=      5-min Rain = 0
KBR1 251806Z 09006KT 12/07 A3032 RMK A01 T01180065  RH  070%=      5-min Rain = 0
KBR1 251807Z 08006KT 12/07 A3032 RMK A01 T01210067  RH  070%=      5-min Rain = 0
KBR1 251808Z 11006KT 12/06 A3032 RMK A01 T01210063  RH  068%=      5-min Rain = 0
KBR1 251809Z 12005KT 12/06 A3032 RMK A01 T01200061  RH  067%=      5-min Rain = 0
KBR1 251810Z 13005KT 12/07 A3032 RMK A01 T01210067  RH  069%=      5-min Rain = 0
KBR1 251811Z 12003KT 12/06 A3032 RMK A01 T01220061  RH  066%=      5-min Rain = 0
KBR1 251812Z 13006G12KT 12/07 A3032 RMK A01 T01220065  RH  068%=      5-min Rain = 0
KBR1 251813Z 15006G13KT 12/07 A3032 RMK A01 T01240065  RH  067%=      5-min Rain = 0
KBR1 251814Z 13005KT 13/06 A3032 RMK A01 T01270062  RH  065%=      5-min Rain = 0
KBR1 251815Z 17004KT 13/06 A3032 RMK A01 T01280060  RH  063%=      5-min Rain = 0
KBR1 251816Z 15004KT 13/06 A3031 RMK A01 T01270059  RH  063%=      5-min Rain = 0
KBR1 251817Z 16007KT 13/06 A3031 RMK A01 T01270062  RH  065%=      5-min Rain = 0
KBR1 251818Z 17006KT 12/06 A3031 RMK A01 T01240059  RH  064%=      5-min Rain = 0
KBR1 251819Z 15006G11KT 12/06 A3031 RMK A01 T01230060  RH  065%=      5-min Rain = 0
KBR1 251820Z 15009KT 12/06 A3031 RMK A01 T01230062  RH  067%=      5-min Rain = 0
KBR1 251821Z 15006KT 12/06 A3031 RMK A01 T01230062  RH  066%=      5-min Rain = 0
KBR1 251822Z 17004KT 12/06 A3031 RMK A01 T01220060  RH  066%=      5-min Rain = 0
KBR1 251823Z 15004KT 12/06 A3031 RMK A01 T01210063  RH  068%=      5-min Rain = 0
KBR1 251824Z 13005KT 12/06 A3031 RMK A01 T01230063  RH  067%=      5-min Rain = 0
KBR1 251825Z 12004KT 12/06 A3031 RMK A01 T01220061  RH  066%=      5-min Rain = 0
KBR1 251826Z 14008KT 12/07 A3031 RMK A01 T01240066  RH  068%=      5-min Rain = 0
KBR1 251827Z 15008KT 13/06 A3031 RMK A01 T01250062  RH  066%=      5-min Rain = 0
KBR1 251828Z 16007KT 12/06 A3031 RMK A01 T01230060  RH  065%=      5-min Rain = 0
KBR1 251829Z 15008KT 12/07 A3031 RMK A01 T01240066  RH  068%=      5-min Rain = 0
KBR1 251830Z 14009KT 13/07 A3031 RMK A01 T01260066  RH  067%=      5-min Rain = 0
KBR1 251831Z 15005KT 13/06 A3031 RMK A01 T01250060  RH  065%=      5-min Rain = 0
KBR1 251832Z 17003KT 12/06 A3031 RMK A01 T01230060  RH  065%=      5-min Rain = 0
KBR1 251833Z 11002KT 12/06 A3031 RMK A01 T01230062  RH  066%=      5-min Rain = 0
KBR1 251834Z 12004KT 13/07 A3031 RMK A01 T01270070  RH  068%=      5-min Rain = 0
KBR1 251835Z 14004KT 13/06 A3031 RMK A01 T01280063  RH  064%=      5-min Rain = 0
KBR1 251836Z 16004KT 13/06 A3031 RMK A01 T01280063  RH  065%=      5-min Rain = 0
KBR1 251837Z 19005KT 13/06 A3031 RMK A01 T01270062  RH  064%=      5-min Rain = 0
KBR1 251838Z 18004KT 13/06 A3031 RMK A01 T01290064  RH  065%=      5-min Rain = 0
KBR1 251839Z 14008KT 13/06 A3031 RMK A01 T01290062  RH  064%=      5-min Rain = 0
KBR1 251840Z 15006KT 13/06 A3031 RMK A01 T01290064  RH  065%=      5-min Rain = 0
KBR1 251841Z 11007KT 13/07 A3031 RMK A01 T01300066  RH  065%=      5-min Rain = 0
KBR1 251842Z 14006KT 13/06 A3031 RMK A01 T01290064  RH  065%=      5-min Rain = 0
KBR1 251843Z 15005KT 13/06 A3031 RMK A01 T01290064  RH  065%=      5-min Rain = 0
KBR1 251844Z 14003KT 13/07 A3031 RMK A01 T01310069  RH  066%=      5-min Rain = 0
KBR1 251845Z 12005KT 13/07 A3031 RMK A01 T01340068  RH  065%=      5-min Rain = 0
KBR1 251846Z 10007KT 14/07 A3031 RMK A01 T01350067  RH  064%=      5-min Rain = 0
KBR1 251847Z 11006KT 13/06 A3031 RMK A01 T01320062  RH  063%=      5-min Rain = 0
KBR1 251848Z 13004KT 13/06 A3031 RMK A01 T01290061  RH  063%=      5-min Rain = 0
KBR1 251849Z 11004KT 13/06 A3031 RMK A01 T01290062  RH  064%=      5-min Rain = 0
KBR1 251850Z 11006KT 13/07 A303 RMK A01 T01290065  RH  065%=      5-min Rain = 0
KBR1 251851Z 13005G10KT 13/07 A303 RMK A01 T01300067  RH  065%=      5-min Rain = 0
KBR1 251852Z 15010KT 13/07 A303 RMK A01 T01330068  RH  065%=      5-min Rain = 0
KBR1 251853Z 13009KT 13/07 A303 RMK A01 T01340065  RH  063%=      5-min Rain = 0
KBR1 251854Z 15010KT 13/06 A303 RMK A01 T01340064  RH  063%=      5-min Rain = 0
KBR1 251855Z 18009KT 13/06 A303 RMK A01 T01340063  RH  062%=      5-min Rain = 0
KBR1 251856Z 17007KT 13/06 A303 RMK A01 T01340063  RH  062%=      5-min Rain = 0
KBR1 251857Z 17007KT 13/06 A303 RMK A01 T01340064  RH  063%=      5-min Rain = 0
KBR1 251858Z 17007KT 13/06 A303 RMK A01 T01340061  RH  061%=      5-min Rain = 0
KBR1 251859Z 15006KT 13/06 A303 RMK A01 T01330062  RH  062%=      5-min Rain = 0
KBR1 251900Z 13004KT 13/06 A303 RMK A01 T01310058  RH  061%=      5-min Rain = 0
KBR1 251901Z 13002KT 13/06 A303 RMK A01 T01290058  RH  062%=      5-min Rain = 0
KBR1 251902Z 15004KT 13/06 A303 RMK A01 T01290063  RH  064%=      5-min Rain = 0
KBR1 251903Z 11003KT 13/07 A303 RMK A01 T01330068  RH  065%=      5-min Rain = 0
KBR1 251904Z 12005KT 14/07 A303 RMK A01 T01350067  RH  063%=      5-min Rain = 0
KBR1 251905Z 15005KT 14/06 A303 RMK A01 T01350064  RH  062%=      5-min Rain = 0
KBR1 251906Z 16004KT 14/06 A303 RMK A01 T01350062  RH  062%=      5-min Rain = 0
KBR1 251907Z 15006KT 14/07 A303 RMK A01 T01370065  RH  062%=      5-min Rain = 0
KBR1 251908Z 18002KT 14/06 A303 RMK A01 T01370058  RH  059%=      5-min Rain = 0
KBR1 251909Z 16007KT 14/06 A303 RMK A01 T01360059  RH  060%=      5-min Rain = 0
KBR1 251910Z 18006KT 14/06 A303 RMK A01 T01360062  RH  061%=      5-min Rain = 0
KBR1 251911Z 16006KT 14/06 A303 RMK A01 T01380063  RH  061%=      5-min Rain = 0
KBR1 251912Z 13004KT 14/06 A303 RMK A01 T01400064  RH  060%=      5-min Rain = 0
KBR1 251913Z 15005KT 14/06 A303 RMK A01 T01390061  RH  059%=      5-min Rain = 0
KBR1 251914Z 16007KT 14/07 A303 RMK A01 T01410070  RH  062%=      5-min Rain = 0
KBR1 251915Z 16007KT 14/07 A303 RMK A01 T01430065  RH  059%=      5-min Rain = 0
KBR1 251916Z 16008KT 14/06 A303 RMK A01 T01400062  RH  059%=      5-min Rain = 0
KBR1 251917Z 16009KT 14/06 A3029 RMK A01 T01390064  RH  060%=      5-min Rain = 0
KBR1 251918Z 17005KT 14/06 A3029 RMK A01 T01380059  RH  059%=      5-min Rain = 0
KBR1 251919Z 18006KT 14/06 A3029 RMK A01 T01370062  RH  061%=      5-min Rain = 0
KBR1 251920Z 18005KT 14/06 A3029 RMK A01 T01370060  RH  060%=      5-min Rain = 0
KBR1 251921Z 15006KT 14/07 A3029 RMK A01 T01380066  RH  062%=      5-min Rain = 0
KBR1 251922Z 15005KT 14/06 A3029 RMK A01 T01390061  RH  059%=      5-min Rain = 0
KBR1 251923Z 16005KT 14/06 A3029 RMK A01 T01370059  RH  059%=      5-min Rain = 0
KBR1 251924Z 17008KT 14/06 A3029 RMK A01 T01370064  RH  061%=      5-min Rain = 0
KBR1 251925Z 18006KT 14/06 A3029 RMK A01 T01400064  RH  060%=      5-min Rain = 0
KBR1 251926Z 17005KT 14/06 A3029 RMK A01 T01400062  RH  059%=      5-min Rain = 0
KBR1 251927Z 12005KT 14/07 A3029 RMK A01 T01390065  RH  061%=      5-min Rain = 0
KBR1 251928Z 13006KT 14/06 A3029 RMK A01 T01410061  RH  059%=      5-min Rain = 0
KBR1 251929Z 13004KT 14/06 A3029 RMK A01 T01370056  RH  058%=      5-min Rain = 0
KBR1 251930Z 13005KT 14/06 A3029 RMK A01 T01360060  RH  060%=      5-min Rain = 0
KBR1 251931Z 14003KT 14/06 A3029 RMK A01 T01360057  RH  059%=      5-min Rain = 0
KBR1 251932Z 16005KT 14/06 A3029 RMK A01 T01370062  RH  061%=      5-min Rain = 0
KBR1 251933Z 17008KT 14/06 A3028 RMK A01 T01390064  RH  061%=      5-min Rain = 0
KBR1 251934Z 14006KT 14/06 A3028 RMK A01 T01410061  RH  059%=      5-min Rain = 0
KBR1 251935Z 15006KT 14/06 A3028 RMK A01 T01410063  RH  059%=      5-min Rain = 0
KBR1 251936Z 17004KT 14/06 A3028 RMK A01 T01410058  RH  057%=      5-min Rain = 0
KBR1 251937Z 14004KT 14/06 A3028 RMK A01 T01400061  RH  059%=      5-min Rain = 0
KBR1 251938Z 14003KT 14/06 A3028 RMK A01 T01400062  RH  059%=      5-min Rain = 0
KBR1 251939Z 11003KT 14/06 A3028 RMK A01 T01400064  RH  060%=      5-min Rain = 0
KBR1 251940Z 11005KT 14/07 A3028 RMK A01 T01410066  RH  060%=      5-min Rain = 0
KBR1 251941Z 12007KT 14/06 A3028 RMK A01 T01410064  RH  060%=      5-min Rain = 0
KBR1 251942Z 15005KT 14/07 A3028 RMK A01 T01410065  RH  060%=      5-min Rain = 0
KBR1 251943Z 15004KT 14/06 A3028 RMK A01 T01420058  RH  057%=      5-min Rain = 0
KBR1 251944Z 16005G11KT 14/06 A3028 RMK A01 T01420061  RH  058%=      5-min Rain = 0
KBR1 251945Z 14009KT 14/06 A3028 RMK A01 T01440064  RH  058%=      5-min Rain = 0
KBR1 251946Z 14007KT 15/06 A3028 RMK A01 T01450061  RH  057%=      5-min Rain = 0
KBR1 251947Z 18007KT 15/07 A3028 RMK A01 T01460069  RH  060%=      5-min Rain = 0
KBR1 251948Z 19007KT 15/06 A3027 RMK A01 T01480060  RH  056%=      5-min Rain = 0
KBR1 251949Z 21004KT 14/06 A3027 RMK A01 T01430055  RH  055%=      5-min Rain = 0
KBR1 251950Z 23004KT 14/06 A3027 RMK A01 T01420057  RH  057%=      5-min Rain = 0
KBR1 251951Z 16004G9KT 14/06 A3027 RMK A01 T01430062  RH  058%=      5-min Rain = 0
KBR1 251952Z 14008KT 15/07 A3027 RMK A01 T01450065  RH  059%=      5-min Rain = 0
KBR1 251953Z 13010KT 15/06 A3027 RMK A01 T01460064  RH  058%=      5-min Rain = 0
KBR1 251954Z 12008KT 15/07 A3027 RMK A01 T01450065  RH  058%=      5-min Rain = 0
KBR1 251955Z 12007KT 15/06 A3027 RMK A01 T01450063  RH  058%=      5-min Rain = 0
KBR1 251956Z 12007KT 14/06 A3027 RMK A01 T01440061  RH  057%=      5-min Rain = 0
KBR1 251957Z 15007KT 14/06 A3027 RMK A01 T01420060  RH  058%=      5-min Rain = 0
KBR1 251958Z 14005KT 14/06 A3027 RMK A01 T01430061  RH  058%=      5-min Rain = 0
KBR1 251959Z 12003KT 15/06 A3027 RMK A01 T01450062  RH  057%=      5-min Rain = 0
KBR1 252000Z 13003KT 15/06 A3027 RMK A01 T01450059  RH  056%=      5-min Rain = 0
KBR1 252001Z 14004KT 15/06 A3027 RMK A01 T01450055  RH  055%=      5-min Rain = 0
KBR1 252002Z 13004KT 14/05 A3027 RMK A01 T01440054  RH  054%=      5-min Rain = 0
KBR1 252003Z 14006KT 15/06 A3027 RMK A01 T01450056  RH  055%=      5-min Rain = 0
KBR1 252004Z 13003KT 15/06 A3027 RMK A01 T01470057  RH  055%=      5-min Rain = 0
KBR1 252005Z 13004KT 15/06 A3027 RMK A01 T01480062  RH  056%=      5-min Rain = 0
KBR1 252006Z 11003KT 15/06 A3027 RMK A01 T01500058  RH  054%=      5-min Rain = 0
KBR1 252007Z 07001KT 15/06 A3027 RMK A01 T01500060  RH  055%=      5-min Rain = 0
KBR1 252008Z 14002KT 15/06 A3026 RMK A01 T01500060  RH  055%=      5-min Rain = 0
KBR1 252009Z 15003KT 15/06 A3026 RMK A01 T01510061  RH  055%=      5-min Rain = 0
KBR1 252010Z 16007KT 16/07 A3026 RMK A01 T01550069  RH  057%=      5-min Rain = 0
KBR1 252011Z 17005KT 16/06 A3026 RMK A01 T01560059  RH  052%=      5-min Rain = 0
KBR1 252012Z 15004G10KT 15/06 A3026 RMK A01 T01540061  RH  054%=      5-min Rain = 0
KBR1 252013Z 14008KT 16/06 A3026 RMK A01 T01550057  RH  052%=      5-min Rain = 0
KBR1 252014Z 13003KT 16/06 A3026 RMK A01 T01550055  RH  051%=      5-min Rain = 0
KBR1 252015Z 15002KT 15/06 A3026 RMK A01 T01530058  RH  053%=      5-min Rain = 0
KBR1 252016Z 18002KT 16/06 A3026 RMK A01 T01550062  RH  054%=      5-min Rain = 0
KBR1 252017Z 13003KT 16/06 A3026 RMK A01 T01570063  RH  053%=      5-min Rain = 0
KBR1 252018Z 16005G10KT 16/06 A3026 RMK A01 T01570061  RH  053%=      5-min Rain = 0
KBR1 252019Z 16007KT 16/06 A3026 RMK A01 T01580063  RH  053%=      5-min Rain = 0
KBR1 252020Z 17006KT 16/07 A3026 RMK A01 T01620065  RH  053%=      5-min Rain = 0
KBR1 252021Z 18007KT 16/05 A3026 RMK A01 T01630052  RH  048%=      5-min Rain = 0
KBR1 252022Z 16006KT 16/05 A3026 RMK A01 T01590046  RH  047%=      5-min Rain = 0
KBR1 252023Z 19006KT 16/05 A3026 RMK A01 T01580050  RH  049%=      5-min Rain = 0
KBR1 252024Z 20005KT 16/04 A3026 RMK A01 T01580043  RH  046%=      5-min Rain = 0
KBR1 252025Z 19004KT 16/04 A3026 RMK A01 T01570041  RH  046%=      5-min Rain = 0
KBR1 252026Z 15004KT 16/05 A3026 RMK A01 T01580049  RH  048%=      5-min Rain = 0
KBR1 252027Z 14004KT 16/06 A3026 RMK A01 T01580055  RH  050%=      5-min Rain = 0
KBR1 252028Z 15007KT 16/06 A3026 RMK A01 T01600062  RH  052%=      5-min Rain = 0
KBR1 252029Z 10004KT 16/06 A3026 RMK A01 T01630060  RH  051%=      5-min Rain = 0
KBR1 252030Z 13008KT 16/06 A3026 RMK A01 T01640061  RH  050%=      5-min Rain = 0
KBR1 252031Z 12010KT 17/06 A3025 RMK A01 T01650056  RH  049%=      5-min Rain = 0
KBR1 252032Z 12008KT 16/06 A3025 RMK A01 T01640058  RH  049%=      5-min Rain = 0
KBR1 252033Z 13006KT 16/05 A3025 RMK A01 T01640053  RH  048%=      5-min Rain = 0
KBR1 252034Z 10004KT 16/05 A3025 RMK A01 T01600045  RH  046%=      5-min Rain = 0
KBR1 252035Z 15006KT 16/05 A3025 RMK A01 T01590046  RH  047%=      5-min Rain = 0
KBR1 252036Z 16007KT 16/05 A3025 RMK A01 T01590045  RH  046%=      5-min Rain = 0
KBR1 252037Z 16006KT 16/04 A3025 RMK A01 T01630043  RH  045%=      5-min Rain = 0
KBR1 252038Z 14004KT 16/05 A3025 RMK A01 T01640046  RH  046%=      5-min Rain = 0
KBR1 252039Z 16007KT 16/04 A3025 RMK A01 T01640044  RH  045%=      5-min Rain = 0
KBR1 252040Z 18005KT 16/05 A3025 RMK A01 T01630046  RH  046%=      5-min Rain = 0
KBR1 252041Z 17005KT 17/04 A3025 RMK A01 T01650043  RH  044%=      5-min Rain = 0
KBR1 252042Z 19004KT 16/04 A3025 RMK A01 T01630036  RH  043%=      5-min Rain = 0
KBR1 252043Z 17005KT 16/04 A3025 RMK A01 T01620039  RH  044%=      5-min Rain = 0
KBR1 252044Z 16009KT 17/05 A3025 RMK A01 T01670046  RH  045%=      5-min Rain = 0
KBR1 252045Z 16010KT 17/04 A3025 RMK A01 T01700040  RH  042%=      5-min Rain = 0
KBR1 252046Z 17008KT 17/04 A3025 RMK A01 T01700044  RH  043%=      5-min Rain = 0
KBR1 252047Z 16005KT 17/04 A3025 RMK A01 T01680044  RH  044%=      5-min Rain = 0
KBR1 252048Z 13004KT 17/05 A3025 RMK A01 T01680045  RH  044%=      5-min Rain = 0
KBR1 252049Z 16005KT 17/05 A3025 RMK A01 T01680046  RH  044%=      5-min Rain = 0
KBR1 252050Z 17006KT 17/05 A3025 RMK A01 T01680045  RH  044%=      5-min Rain = 0
KBR1 252051Z 14005KT 17/05 A3024 RMK A01 T01690048  RH  045%=      5-min Rain = 0
KBR1 252052Z 15006KT 17/05 A3024 RMK A01 T01700054  RH  046%=      5-min Rain = 0
KBR1 252053Z 16007KT 17/05 A3024 RMK A01 T01730054  RH  046%=      5-min Rain = 0
KBR1 252054Z 17008KT 18/05 A3024 RMK A01 T01750051  RH  044%=      5-min Rain = 0
KBR1 252055Z 17006KT 17/05 A3024 RMK A01 T01710045  RH  043%=      5-min Rain = 0
KBR1 252056Z 17006KT 17/05 A3024 RMK A01 T01680046  RH  044%=      5-min Rain = 0
KBR1 252057Z 17009KT 17/05 A3024 RMK A01 T01690050  RH  045%=      5-min Rain = 0
KBR1 252058Z 18008KT 17/04 A3024 RMK A01 T01700044  RH  043%=      5-min Rain = 0
KBR1 252059Z 20008KT 17/04 A3024 RMK A01 T01710038  RH  041%=      5-min Rain = 0
KBR1 252100Z 18006KT 17/04 A3024 RMK A01 T01720041  RH  042%=      5-min Rain = 0
KBR1 252101Z 14007KT 18/04 A3024 RMK A01 T01750043  RH  042%=      5-min Rain = 0
KBR1 252102Z 16007KT 17/04 A3024 RMK A01 T01730041  RH  042%=      5-min Rain = 0
KBR1 252103Z 18005KT 17/04 A3024 RMK A01 T01710039  RH  041%=      5-min Rain = 0
KBR1 252104Z 16005KT 17/05 A3024 RMK A01 T01720049  RH  044%=      5-min Rain = 0
KBR1 252105Z 15003KT 18/05 A3024 RMK A01 T01760052  RH  044%=      5-min Rain = 0
KBR1 252106Z 14006KT 18/05 A3024 RMK A01 T01780051  RH  043%=      5-min Rain = 0
KBR1 252107Z 13005KT 18/04 A3024 RMK A01 T01780040  RH  040%=      5-min Rain = 0
KBR1 252108Z 12005KT 18/04 A3024 RMK A01 T01760042  RH  041%=      5-min Rain = 0
KBR1 252109Z 14008KT 17/04 A3024 RMK A01 T01740037  RH  040%=      5-min Rain = 0
KBR1 252110Z 14008KT 18/03 A3024 RMK A01 T01750028  RH  037%=      5-min Rain = 0
KBR1 252111Z 14006KT 18/03 A3024 RMK A01 T01770030  RH  037%=      5-min Rain = 0
KBR1 252112Z 14005KT 18/03 A3024 RMK A01 T01750026  RH  037%=      5-min Rain = 0
KBR1 252113Z 17006KT 18/04 A3023 RMK A01 T01750039  RH  040%=      5-min Rain = 0
KBR1 252114Z 19009KT 18/03 A3023 RMK A01 T01760034  RH  039%=      5-min Rain = 0
KBR1 252115Z 19008KT 18/03 A3023 RMK A01 T01760029  RH  037%=      5-min Rain = 0
KBR1 252116Z 16008KT 18/03 A3023 RMK A01 T01770027  RH  037%=      5-min Rain = 0
KBR1 252117Z 17007KT 18/03 A3023 RMK A01 T01760027  RH  037%=      5-min Rain = 0
KBR1 252118Z 16007KT 18/02 A3023 RMK A01 T01760022  RH  036%=      5-min Rain = 0
KBR1 252119Z 17009KT 18/02 A3023 RMK A01 T01760024  RH  036%=      5-min Rain = 0
KBR1 252120Z 17007KT 18/03 A3023 RMK A01 T01760027  RH  037%=      5-min Rain = 0
KBR1 252121Z 16008KT 18/03 A3023 RMK A01 T01770031  RH  038%=      5-min Rain = 0
KBR1 252122Z 16006KT 18/03 A3023 RMK A01 T01770034  RH  039%=      5-min Rain = 0
KBR1 252123Z 16004KT 18/03 A3023 RMK A01 T01760034  RH  039%=      5-min Rain = 0
KBR1 252124Z 19010KT 18/04 A3023 RMK A01 T01770035  RH  039%=      5-min Rain = 0
KBR1 252125Z 21007KT 18/03 A3023 RMK A01 T01780030  RH  037%=      5-min Rain = 0
KBR1 252126Z 21006KT 18/03 A3023 RMK A01 T01790028  RH  037%=      5-min Rain = 0
KBR1 252127Z 19006KT 18/02 A3023 RMK A01 T01790023  RH  035%=      5-min Rain = 0
KBR1 252128Z 18006KT 18/02 A3023 RMK A01 T01800023  RH  035%=      5-min Rain = 0
KBR1 252129Z 18006KT 18/03 A3023 RMK A01 T01790027  RH  036%=      5-min Rain = 0
KBR1 252130Z 14006G12KT 18/02 A3023 RMK A01 T01790024  RH  035%=      5-min Rain = 0
KBR1 252131Z 13010KT 18/03 A3023 RMK A01 T01800034  RH  038%=      5-min Rain = 0
KBR1 252132Z 12008KT 18/03 A3023 RMK A01 T01810029  RH  036%=      5-min Rain = 0
KBR1 252133Z 14007KT 18/03 A3023 RMK A01 T01790026  RH  036%=      5-min Rain = 0
KBR1 252134Z 14011KT 18/03 A3023 RMK A01 T01780034  RH  038%=      5-min Rain = 0
KBR1 252135Z 15011KT 18/04 A3023 RMK A01 T01790035  RH  038%=      5-min Rain = 0
KBR1 252136Z 15008KT 18/04 A3023 RMK A01 T01790035  RH  038%=      5-min Rain = 0
KBR1 252137Z 13004KT 18/03 A3023 RMK A01 T01770029  RH  037%=      5-min Rain = 0
KBR1 252138Z 12003KT 18/04 A3023 RMK A01 T01760037  RH  040%=      5-min Rain = 0
KBR1 252139Z 16004KT 18/04 A3023 RMK A01 T01780038  RH  039%=      5-min Rain = 0
KBR1 252140Z 13006KT 18/03 A3023 RMK A01 T01790034  RH  038%=      5-min Rain = 0
KBR1 252141Z 16008KT 18/03 A3022 RMK A01 T01770033  RH  038%=      5-min Rain = 0
KBR1 252142Z 19007KT 18/04 A3022 RMK A01 T01790035  RH  039%=      5-min Rain = 0
KBR1 252143Z 19007KT 18/03 A3022 RMK A01 T01800030  RH  037%=      5-min Rain = 0
KBR1 252144Z 17007KT 18/03 A3022 RMK A01 T01790033  RH  038%=      5-min Rain = 0
KBR1 252145Z 14006KT 18/03 A3022 RMK A01 T01800034  RH  038%=      5-min Rain = 0
KBR1 252146Z 15010KT 18/04 A3022 RMK A01 T01820042  RH  040%=      5-min Rain = 0
KBR1 252147Z 14009KT 18/04 A3022 RMK A01 T01820037  RH  038%=      5-min Rain = 0
KBR1 252148Z 14008KT 18/04 A3022 RMK A01 T01800041  RH  040%=      5-min Rain = 0
KBR1 252149Z 14010KT 18/04 A3022 RMK A01 T01830043  RH  039%=      5-min Rain = 0
KBR1 252150Z 11010KT 18/04 A3022 RMK A01 T01830038  RH  038%=      5-min Rain = 0
KBR1 252151Z 16006KT 18/03 A3022 RMK A01 T01820034  RH  037%=      5-min Rain = 0
KBR1 252152Z 16006KT 18/03 A3022 RMK A01 T01810031  RH  037%=      5-min Rain = 0
KBR1 252153Z 14005KT 18/03 A3022 RMK A01 T01800026  RH  036%=      5-min Rain = 0
KBR1 252154Z 16004KT 18/03 A3022 RMK A01 T01790031  RH  037%=      5-min Rain = 0
KBR1 252155Z 16003KT 18/03 A3022 RMK A01 T01800025  RH  035%=      5-min Rain = 0
KBR1 252156Z 15004KT 18/03 A3022 RMK A01 T01800026  RH  036%=      5-min Rain = 0
KBR1 252157Z 16007KT 18/03 A3022 RMK A01 T01810027  RH  036%=      5-min Rain = 0
KBR1 252158Z 19008KT 18/02 A3022 RMK A01 T01840018  RH  033%=      5-min Rain = 0
KBR1 252159Z 18009KT 19/01 A3022 RMK A01 T01860014  RH  032%=      5-min Rain = 0
KBR1 252200Z 18011KT 19/02 A3022 RMK A01 T01850018  RH  033%=      5-min Rain = 0
KBR1 252201Z 18009KT 18/02 A3022 RMK A01 T01840015  RH  032%=      5-min Rain = 0
KBR1 252202Z 21005KT 18/01 A3022 RMK A01 T01830008  RH  031%=      5-min Rain = 0
KBR1 252203Z 21003KT 18/00 A3022 RMK A01 T01830002  RH  030%=      5-min Rain = 0
KBR1 252204Z 19002KT 18/01 A3022 RMK A01 T01830008  RH  031%=      5-min Rain = 0
KBR1 252205Z 15006KT 19/02 A3022 RMK A01 T01850016  RH  032%=      5-min Rain = 0
KBR1 252206Z 15006KT 19/02 A3022 RMK A01 T01860018  RH  032%=      5-min Rain = 0
KBR1 252207Z 14005KT 19/02 A3022 RMK A01 T01880020  RH  033%=      5-min Rain = 0
KBR1 252208Z 15004KT 19/02 A3022 RMK A01 T01900017  RH  031%=      5-min Rain = 0
KBR1 252209Z 15002KT 19/01 A3022 RMK A01 T01880012  RH  031%=      5-min Rain = 0
KBR1 252210Z 17002KT 19/01 A3022 RMK A01 T01870009  RH  030%=      5-min Rain = 0
KBR1 252211Z 17000KT 19/01 A3022 RMK A01 T01870007  RH  030%=      5-min Rain = 0
KBR1 252212Z 08002KT 19/01 A3021 RMK A01 T01870009  RH  030%=      5-min Rain = 0
KBR1 252213Z 15002KT 19/02 A3021 RMK A01 T01880016  RH  032%=      5-min Rain = 0
KBR1 252214Z 17007KT 19/02 A3021 RMK A01 T01890019  RH  032%=      5-min Rain = 0
KBR1 252215Z 15004KT 19/02 A3021 RMK A01 T01890019  RH  032%=      5-min Rain = 0
KBR1 252216Z 15003KT 19/02 A3021 RMK A01 T01880021  RH  033%=      5-min Rain = 0
KBR1 252217Z 16009KT 19/02 A3021 RMK A01 T01890023  RH  033%=      5-min Rain = 0
KBR1 252218Z 15010KT 19/03 A3021 RMK A01 T01910030  RH  034%=      5-min Rain = 0
KBR1 252219Z 14010KT 19/03 A3021 RMK A01 T01930030  RH  034%=      5-min Rain = 0
KBR1 252220Z 15009KT 19/03 A3021 RMK A01 T01930025  RH  033%=      5-min Rain = 0
KBR1 252221Z 16009KT 19/02 A3021 RMK A01 T01920022  RH  032%=      5-min Rain = 0
KBR1 252222Z 16009KT 19/02 A3021 RMK A01 T01910023  RH  033%=      5-min Rain = 0
KBR1 252223Z 15009KT 19/02 A3021 RMK A01 T01900019  RH  032%=      5-min Rain = 0
KBR1 252224Z 14008KT 19/02 A3021 RMK A01 T01890019  RH  032%=      5-min Rain = 0
KBR1 252225Z 14006KT 19/02 A3021 RMK A01 T01880018  RH  032%=      5-min Rain = 0
KBR1 252226Z 13005KT 19/02 A3021 RMK A01 T01880019  RH  032%=      5-min Rain = 0
KBR1 252227Z 13005KT 19/01 A3021 RMK A01 T01860011  RH  031%=      5-min Rain = 0
KBR1 252228Z 09003KT 18/01 A3021 RMK A01 T01840013  RH  032%=      5-min Rain = 0
KBR1 252229Z 12004KT 18/02 A3021 RMK A01 T01840017  RH  033%=      5-min Rain = 0
KBR1 252230Z 11002KT 19/01 A3021 RMK A01 T01850013  RH  032%=      5-min Rain = 0
KBR1 252231Z 16003KT 19/02 A3021 RMK A01 T01850017  RH  032%=      5-min Rain = 0
KBR1 252232Z 17005KT 19/02 A3021 RMK A01 T01870018  RH  032%=      5-min Rain = 0
KBR1 252233Z 17008KT 19/02 A3021 RMK A01 T01880022  RH  033%=      5-min Rain = 0
KBR1 252234Z 16006KT 19/02 A3021 RMK A01 T01880023  RH  033%=      5-min Rain = 0
KBR1 252235Z 17005KT 19/02 A3021 RMK A01 T01870023  RH  033%=      5-min Rain = 0
KBR1 252236Z 18005KT 19/02 A3021 RMK A01 T01880021  RH  033%=      5-min Rain = 0
KBR1 252237Z 19002KT 19/02 A3021 RMK A01 T01870023  RH  033%=      5-min Rain = 0
KBR1 252238Z 16002KT 19/02 A3021 RMK A01 T01880024  RH  034%=      5-min Rain = 0
KBR1 252239Z 17004KT 19/02 A3021 RMK A01 T01890023  RH  033%=      5-min Rain = 0
KBR1 252240Z 17006KT 19/02 A3021 RMK A01 T01900023  RH  033%=      5-min Rain = 0
KBR1 252241Z 18005KT 19/02 A3021 RMK A01 T01910022  RH  033%=      5-min Rain = 0
KBR1 252242Z 17005KT 19/02 A3021 RMK A01 T01910023  RH  033%=      5-min Rain = 0
KBR1 252243Z 16004KT 19/02 A3021 RMK A01 T01900024  RH  033%=      5-min Rain = 0
KBR1 252244Z 14006KT 19/02 A3021 RMK A01 T01900024  RH  033%=      5-min Rain = 0
KBR1 252245Z 15006KT 19/03 A3021 RMK A01 T01900025  RH  033%=      5-min Rain = 0
KBR1 252246Z 16007KT 19/02 A3021 RMK A01 T01910019  RH  032%=      5-min Rain = 0
KBR1 252247Z 16006KT 19/01 A3021 RMK A01 T01910014  RH  031%=      5-min Rain = 0
KBR1 252248Z 17008KT 19/02 A3021 RMK A01 T01910018  RH  031%=      5-min Rain = 0
KBR1 252249Z 17006KT 19/02 A3021 RMK A01 T01920015  RH  031%=      5-min Rain = 0
KBR1 252250Z 15006KT 19/01 A3021 RMK A01 T01930014  RH  030%=      5-min Rain = 0
KBR1 252251Z 16007KT 19/02 A3021 RMK A01 T01930015  RH  030%=      5-min Rain = 0
KBR1 252252Z 17006KT 19/01 A3021 RMK A01 T01930012  RH  030%=      5-min Rain = 0
KBR1 252253Z 17006KT 19/02 A3021 RMK A01 T01920015  RH  031%=      5-min Rain = 0
KBR1 252254Z 14005KT 19/02 A3021 RMK A01 T01920018  RH  031%=      5-min Rain = 0
KBR1 252255Z 14007KT 19/02 A3021 RMK A01 T01940021  RH  031%=      5-min Rain = 0
KBR1 252256Z 15007KT 19/02 A3021 RMK A01 T01940021  RH  032%=      5-min Rain = 0
KBR1 252257Z 13007KT 20/02 A3021 RMK A01 T01950024  RH  032%=      5-min Rain = 0
KBR1 252258Z 15006KT 19/03 A302 RMK A01 T01940025  RH  033%=      5-min Rain = 0
KBR1 252259Z 12005KT 19/03 A302 RMK A01 T01930030  RH  034%=      5-min Rain = 0
KBR1 252300Z 11006KT 19/03 A302 RMK A01 T01930026  RH  033%=      5-min Rain = 0
KBR1 252301Z 10006KT 19/02 A302 RMK A01 T01930024  RH  032%=      5-min Rain = 0
KBR1 252302Z 09005KT 19/02 A302 RMK A01 T01920022  RH  032%=      5-min Rain = 0
KBR1 252303Z 08004KT 19/02 A302 RMK A01 T01920023  RH  032%=      5-min Rain = 0
KBR1 252304Z 15006KT 19/02 A302 RMK A01 T01920022  RH  032%=      5-min Rain = 0
KBR1 252305Z 15005KT 19/02 A302 RMK A01 T01920017  RH  031%=      5-min Rain = 0
KBR1 252306Z 13005KT 19/02 A302 RMK A01 T01920021  RH  032%=      5-min Rain = 0
KBR1 252307Z 14004KT 19/02 A302 RMK A01 T01920019  RH  032%=      5-min Rain = 0
KBR1 252308Z 16007KT 19/02 A302 RMK A01 T01930022  RH  032%=      5-min Rain = 0
KBR1 252309Z 16006KT 19/02 A302 RMK A01 T01940016  RH  030%=      5-min Rain = 0
KBR1 252310Z 16006KT 19/02 A302 RMK A01 T01940015  RH  030%=      5-min Rain = 0
KBR1 252311Z 15005KT 20/02 A302 RMK A01 T01950016  RH  030%=      5-min Rain = 0
KBR1 252312Z 14006KT 20/02 A302 RMK A01 T01960021  RH  031%=      5-min Rain = 0
KBR1 252313Z 15007KT 20/02 A302 RMK A01 T01960020  RH  031%=      5-min Rain = 0
KBR1 252314Z 15006KT 20/02 A302 RMK A01 T01970017  RH  030%=      5-min Rain = 0
KBR1 252315Z 15006KT 20/02 A302 RMK A01 T01970019  RH  031%=      5-min Rain = 0
KBR1 252316Z 15005KT 20/02 A302 RMK A01 T01970018  RH  030%=      5-min Rain = 0
KBR1 252317Z 15009KT 20/02 A302 RMK A01 T01960024  RH  032%=      5-min Rain = 0
KBR1 252318Z 15010KT 20/03 A302 RMK A01 T01980025  RH  032%=      5-min Rain = 0
KBR1 252319Z 16009KT 20/03 A302 RMK A01 T01980025  RH  032%=      5-min Rain = 0
KBR1 252320Z 16007KT 20/02 A302 RMK A01 T01980018  RH  030%=      5-min Rain = 0
KBR1 252321Z 16009KT 20/02 A302 RMK A01 T01970020  RH  031%=      5-min Rain = 0
KBR1 252322Z 16009KT 20/02 A302 RMK A01 T01960022  RH  031%=      5-min Rain = 0
KBR1 252323Z 17006KT 20/02 A302 RMK A01 T01960021  RH  031%=      5-min Rain = 0
KBR1 252324Z 19006KT 20/03 A302 RMK A01 T01960026  RH  032%=      5-min Rain = 0
KBR1 252325Z 19004KT 20/02 A302 RMK A01 T01960020  RH  031%=      5-min Rain = 0
KBR1 252326Z 15006KT 20/02 A302 RMK A01 T01960022  RH  031%=      5-min Rain = 0
KBR1 252327Z 15006KT 20/02 A302 RMK A01 T01960020  RH  031%=      5-min Rain = 0
KBR1 252328Z 16004KT 20/02 A302 RMK A01 T01950019  RH  031%=      5-min Rain = 0
KBR1 252329Z 13004KT 20/02 A302 RMK A01 T01950020  RH  031%=      5-min Rain = 0
KBR1 252330Z 13006KT 20/02 A302 RMK A01 T01950021  RH  031%=      5-min Rain = 0
KBR1 252331Z 14005KT 20/01 A302 RMK A01 T01950008  RH  029%=      5-min Rain = 0
KBR1 252332Z 13004KT 20/01 A302 RMK A01 T01960013  RH  029%=      5-min Rain = 0
KBR1 252333Z 11007KT 20/02 A302 RMK A01 T01960020  RH  031%=      5-min Rain = 0
KBR1 252334Z 13010KT 20/02 A3019 RMK A01 T01980022  RH  031%=      5-min Rain = 0
KBR1 252335Z 16009KT 20/02 A3019 RMK A01 T02000020  RH  030%=      5-min Rain = 0
KBR1 252336Z 19009KT 20/02 A3019 RMK A01 T02010015  RH  029%=      5-min Rain = 0
KBR1 252337Z 16010KT 20/02 A302 RMK A01 T02000024  RH  031%=      5-min Rain = 0
KBR1 252338Z 13014KT 20/03 A302 RMK A01 T02000033  RH  033%=      5-min Rain = 0
KBR1 252339Z 14011KT 20/04 A302 RMK A01 T01980036  RH  034%=      5-min Rain = 0
KBR1 252340Z 12010KT 20/04 A302 RMK A01 T01980036  RH  034%=      5-min Rain = 0
KBR1 252341Z 12010KT 20/04 A302 RMK A01 T01970035  RH  034%=      5-min Rain = 0
KBR1 252342Z 14010KT 20/04 A302 RMK A01 T01960036  RH  035%=      5-min Rain = 0
KBR1 252343Z 13009KT 20/03 A302 RMK A01 T01970033  RH  034%=      5-min Rain = 0
KBR1 252344Z 15010KT 20/04 A302 RMK A01 T01960036  RH  035%=      5-min Rain = 0
KBR1 252345Z 15010KT 20/03 A3019 RMK A01 T01970029  RH  033%=      5-min Rain = 0
KBR1 252346Z 14008KT 20/03 A3019 RMK A01 T01960026  RH  032%=      5-min Rain = 0
KBR1 252347Z 15007KT 20/03 A3019 RMK A01 T01960027  RH  033%=      5-min Rain = 0
KBR1 252348Z 15008KT 20/03 A3019 RMK A01 T01960027  RH  033%=      5-min Rain = 0
KBR1 252349Z 14008KT 20/03 A3019 RMK A01 T01960025  RH  032%=      5-min Rain = 0
KBR1 252350Z 13008KT 20/03 A3019 RMK A01 T01950028  RH  033%=      5-min Rain = 0
KBR1 252351Z 13012KT 20/03 A3019 RMK A01 T01950030  RH  033%=      5-min Rain = 0
KBR1 252352Z 14010KT 20/03 A3019 RMK A01 T01950026  RH  032%=      5-min Rain = 0
KBR1 252353Z 13007KT 20/03 A3019 RMK A01 T01950028  RH  033%=      5-min Rain = 0
KBR1 252354Z 13006KT 20/03 A3019 RMK A01 T01950032  RH  034%=      5-min Rain = 0
KBR1 252355Z 14007KT 20/04 A3019 RMK A01 T01960036  RH  035%=      5-min Rain = 0
KBR1 252356Z 13012KT 20/03 A3019 RMK A01 T01960033  RH  034%=      5-min Rain = 0
KBR1 252357Z 13010KT 20/03 A3019 RMK A01 T01950031  RH  034%=      5-min Rain = 0
KBR1 252358Z 12009KT 19/03 A3019 RMK A01 T01940031  RH  034%=      5-min Rain = 0
KBR1 252359Z 12008KT 19/03 A3019 RMK A01 T01930032  RH  034%=      5-min Rain = 0
KBR1 260000Z 13008KT 19/04 A3019 RMK A01 T01930036  RH  035%=      5-min Rain = 0
KBR1 260001Z 13009KT 19/03 A3019 RMK A01 T01930034  RH  035%=      5-min Rain = 0
KBR1 260002Z 15009KT 19/03 A3019 RMK A01 T01930031  RH  034%=      5-min Rain = 0
KBR1 260003Z 15009KT 19/03 A3019 RMK A01 T01940030  RH  034%=      5-min Rain = 0
KBR1 260004Z 14010KT 19/03 A3019 RMK A01 T01930030  RH  034%=      5-min Rain = 0
KBR1 260005Z 15010KT 19/03 A3019 RMK A01 T01930028  RH  033%=      5-min Rain = 0
KBR1 260006Z 14009KT 19/03 A3019 RMK A01 T01930026  RH  033%=      5-min Rain = 0
KBR1 260007Z 13010KT 19/03 A3019 RMK A01 T01920025  RH  033%=      5-min Rain = 0
KBR1 260008Z 13009KT 19/03 A3019 RMK A01 T01920026  RH  033%=      5-min Rain = 0
KBR1 260009Z 14007KT 19/03 A3019 RMK A01 T01920029  RH  034%=      5-min Rain = 0
KBR1 260010Z 14011KT 19/03 A3019 RMK A01 T01920030  RH  034%=      5-min Rain = 0
KBR1 260011Z 14010KT 19/03 A3019 RMK A01 T01920029  RH  034%=      5-min Rain = 0
KBR1 260012Z 14010KT 19/03 A3019 RMK A01 T01910030  RH  034%=      5-min Rain = 0
KBR1 260013Z 13010KT 19/03 A3019 RMK A01 T01900030  RH  035%=      5-min Rain = 0
KBR1 260014Z 13011KT 19/04 A3019 RMK A01 T01900035  RH  036%=      5-min Rain = 0
KBR1 260015Z 13011KT 19/03 A3019 RMK A01 T01890033  RH  035%=      5-min Rain = 0
KBR1 260016Z 13010KT 19/04 A3019 RMK A01 T01880035  RH  036%=      5-min Rain = 0
KBR1 260017Z 14010KT 19/04 A3019 RMK A01 T01880041  RH  038%=      5-min Rain = 0
KBR1 260018Z 13012KT 19/04 A3019 RMK A01 T01880039  RH  037%=      5-min Rain = 0
KBR1 260019Z 14011KT 19/04 A3019 RMK A01 T01870039  RH  037%=      5-min Rain = 0
KBR1 260020Z 13010KT 19/04 A3019 RMK A01 T01860039  RH  038%=      5-min Rain = 0
KBR1 260021Z 14010KT 19/04 A3019 RMK A01 T01860041  RH  038%=      5-min Rain = 0
KBR1 260022Z 14011KT 19/04 A3019 RMK A01 T01860037  RH  037%=      5-min Rain = 0
KBR1 260023Z 14011KT 19/04 A3019 RMK A01 T01850036  RH  037%=      5-min Rain = 0
KBR1 260024Z 14012KT 19/04 A3019 RMK A01 T01850037  RH  037%=      5-min Rain = 0
KBR1 260025Z 13009KT 18/04 A3019 RMK A01 T01840039  RH  038%=      5-min Rain = 0
KBR1 260026Z 13011KT 18/04 A3019 RMK A01 T01840042  RH  039%=      5-min Rain = 0
KBR1 260027Z 13012KT 18/04 A3019 RMK A01 T01830041  RH  039%=      5-min Rain = 0
KBR1 260028Z 13011KT 18/04 A3019 RMK A01 T01820040  RH  039%=      5-min Rain = 0
KBR1 260029Z 13011KT 18/04 A3019 RMK A01 T01820041  RH  039%=      5-min Rain = 0
KBR1 260030Z 13010KT 18/04 A3019 RMK A01 T01820042  RH  040%=      5-min Rain = 0
KBR1 260031Z 13011KT 18/04 A3019 RMK A01 T01810042  RH  040%=      5-min Rain = 0
KBR1 260032Z 13011KT 18/04 A3019 RMK A01 T01810041  RH  039%=      5-min Rain = 0
KBR1 260033Z 13010KT 18/04 A3019 RMK A01 T01800039  RH  039%=      5-min Rain = 0
KBR1 260034Z 12011KT 18/04 A3019 RMK A01 T01800044  RH  041%=      5-min Rain = 0
KBR1 260035Z 12011KT 18/04 A3019 RMK A01 T01780044  RH  041%=      5-min Rain = 0
KBR1 260036Z 12009KT 18/05 A3019 RMK A01 T01770046  RH  042%=      5-min Rain = 0
KBR1 260037Z 12012KT 18/05 A3019 RMK A01 T01760046  RH  042%=      5-min Rain = 0
KBR1 260038Z 12012KT 18/05 A3019 RMK A01 T01750045  RH  042%=      5-min Rain = 0
KBR1 260039Z 12011KT 18/05 A3019 RMK A01 T01750046  RH  043%=      5-min Rain = 0
KBR1 260040Z 12012KT 17/05 A3019 RMK A01 T01740046  RH  043%=      5-min Rain = 0
KBR1 260041Z 11010KT 17/05 A3019 RMK A01 T01740045  RH  043%=      5-min Rain = 0
KBR1 260042Z 12010KT 17/05 A3019 RMK A01 T01730047  RH  043%=      5-min Rain = 0
KBR1 260043Z 12008KT 17/05 A3019 RMK A01 T01720047  RH  043%=      5-min Rain = 0
KBR1 260044Z 11009KT 17/05 A3019 RMK A01 T01710047  RH  044%=      5-min Rain = 0
KBR1 260045Z 11011KT 17/05 A3019 RMK A01 T01700047  RH  044%=      5-min Rain = 0
KBR1 260046Z 12011KT 17/05 A3019 RMK A01 T01700045  RH  044%=      5-min Rain = 0
KBR1 260047Z 11010KT 17/05 A3019 RMK A01 T01700047  RH  044%=      5-min Rain = 0
KBR1 260048Z 12010KT 17/05 A3019 RMK A01 T01690047  RH  045%=      5-min Rain = 0
KBR1 260049Z 12011KT 17/05 A3019 RMK A01 T01680048  RH  045%=      5-min Rain = 0
KBR1 260050Z 12009KT 17/05 A3019 RMK A01 T01670049  RH  045%=      5-min Rain = 0
KBR1 260051Z 11009KT 17/05 A3019 RMK A01 T01660049  RH  046%=      5-min Rain = 0
KBR1 260052Z 11010KT 17/05 A3019 RMK A01 T01650047  RH  046%=      5-min Rain = 0
KBR1 260053Z 11009KT 17/05 A3019 RMK A01 T01650048  RH  046%=      5-min Rain = 0
KBR1 260054Z 11010KT 16/05 A3019 RMK A01 T01640048  RH  046%=      5-min Rain = 0
KBR1 260055Z 11010KT 16/05 A3019 RMK A01 T01630047  RH  046%=      5-min Rain = 0
KBR1 260056Z 11011KT 16/05 A3019 RMK A01 T01630049  RH  047%=      5-min Rain = 0
KBR1 260057Z 11011KT 16/05 A3019 RMK A01 T01620047  RH  047%=      5-min Rain = 0
KBR1 260058Z 11010KT 16/05 A3019 RMK A01 T01610049  RH  047%=      5-min Rain = 0
KBR1 260059Z 11010KT 16/05 A3019 RMK A01 T01600049  RH  048%=      5-min Rain = 0
KBR1 260100Z 11011KT 16/05 A3019 RMK A01 T01590048  RH  048%=      5-min Rain = 0
KBR1 260101Z 11011KT 16/05 A3019 RMK A01 T01590048  RH  048%=      5-min Rain = 0
KBR1 260102Z 11010KT 16/05 A3019 RMK A01 T01590049  RH  048%=      5-min Rain = 0
KBR1 260103Z 11010KT 16/05 A3019 RMK A01 T01580049  RH  048%=      5-min Rain = 0
KBR1 260104Z 11012KT 16/05 A3019 RMK A01 T01570047  RH  048%=      5-min Rain = 0
KBR1 260105Z 11011KT 16/05 A3019 RMK A01 T01580048  RH  048%=      5-min Rain = 0
KBR1 260106Z 11011KT 16/05 A3019 RMK A01 T01570049  RH  048%=      5-min Rain = 0
KBR1 260107Z 11011KT 16/05 A3019 RMK A01 T01570049  RH  049%=      5-min Rain = 0
KBR1 260108Z 11010KT 16/05 A3019 RMK A01 T01560048  RH  049%=      5-min Rain = 0
KBR1 260109Z 11011KT 16/05 A3019 RMK A01 T01550048  RH  049%=      5-min Rain = 0
KBR1 260110Z 11011KT 16/05 A3019 RMK A01 T01550049  RH  049%=      5-min Rain = 0
KBR1 260111Z 11010KT 15/05 A3019 RMK A01 T01540049  RH  049%=      5-min Rain = 0
KBR1 260112Z 11011KT 15/05 A3019 RMK A01 T01530049  RH  050%=      5-min Rain = 0
KBR1 260113Z 11010KT 15/05 A3019 RMK A01 T01530049  RH  050%=      5-min Rain = 0
KBR1 260114Z 11010KT 15/05 A3019 RMK A01 T01520049  RH  050%=      5-min Rain = 0
KBR1 260115Z 11009KT 15/05 A3019 RMK A01 T01510049  RH  050%=      5-min Rain = 0
KBR1 260116Z 11009KT 15/05 A3019 RMK A01 T01500050  RH  051%=      5-min Rain = 0
KBR1 260117Z 11009KT 15/05 A3019 RMK A01 T01500049  RH  051%=      5-min Rain = 0
KBR1 260118Z 11010KT 15/05 A3019 RMK A01 T01490049  RH  051%=      5-min Rain = 0
KBR1 260119Z 11010KT 15/05 A3019 RMK A01 T01480049  RH  051%=      5-min Rain = 0
KBR1 260120Z 11010KT 15/05 A3019 RMK A01 T01480048  RH  051%=      5-min Rain = 0
KBR1 260121Z 11010KT 15/05 A3019 RMK A01 T01480049  RH  051%=      5-min Rain = 0
KBR1 260122Z 11009KT 15/05 A3019 RMK A01 T01470049  RH  052%=      5-min Rain = 0
KBR1 260123Z 11009KT 15/05 A3019 RMK A01 T01470048  RH  052%=      5-min Rain = 0
KBR1 260124Z 11009KT 15/05 A3019 RMK A01 T01470049  RH  052%=      5-min Rain = 0
KBR1 260125Z 11009KT 15/05 A3019 RMK A01 T01460049  RH  052%=      5-min Rain = 0
KBR1 260126Z 11009KT 15/05 A3019 RMK A01 T01450049  RH  052%=      5-min Rain = 0
KBR1 260127Z 11009KT 15/05 A3019 RMK A01 T01450049  RH  052%=      5-min Rain = 0
KBR1 260128Z 11009KT 14/05 A3019 RMK A01 T01440049  RH  053%=      5-min Rain = 0
KBR1 260129Z 11008KT 14/05 A3019 RMK A01 T01430049  RH  053%=      5-min Rain = 0
KBR1 260130Z 11009KT 14/05 A3019 RMK A01 T01420049  RH  053%=      5-min Rain = 0
KBR1 260131Z 11009KT 14/05 A3019 RMK A01 T01420049  RH  053%=      5-min Rain = 0
KBR1 260132Z 10009KT 14/05 A3019 RMK A01 T01410049  RH  054%=      5-min Rain = 0
KBR1 260133Z 10008KT 14/05 A3019 RMK A01 T01410049  RH  054%=      5-min Rain = 0
KBR1 260134Z 11008KT 14/05 A3019 RMK A01 T01400049  RH  054%=      5-min Rain = 0
KBR1 260135Z 10009KT 14/05 A3019 RMK A01 T01400049  RH  054%=      5-min Rain = 0
KBR1 260136Z 10009KT 14/05 A3019 RMK A01 T01400049  RH  054%=      5-min Rain = 0
KBR1 260137Z 10009KT 14/05 A3019 RMK A01 T01400049  RH  054%=      5-min Rain = 0
KBR1 260138Z 10009KT 14/05 A3019 RMK A01 T01390049  RH  055%=      5-min Rain = 0
KBR1 260139Z 11009KT 14/05 A3019 RMK A01 T01390049  RH  055%=      5-min Rain = 0
KBR1 260140Z 10010KT 14/05 A3019 RMK A01 T01380049  RH  055%=      5-min Rain = 0
KBR1 260141Z 10010KT 14/05 A3019 RMK A01 T01380049  RH  055%=      5-min Rain = 0
KBR1 260142Z 10009KT 14/05 A3019 RMK A01 T01380049  RH  055%=      5-min Rain = 0
KBR1 260143Z 10009KT 14/05 A3019 RMK A01 T01380049  RH  055%=      5-min Rain = 0
KBR1 260144Z 10009KT 14/05 A3019 RMK A01 T01370049  RH  055%=      5-min Rain = 0
KBR1 260145Z 10010KT 14/05 A3019 RMK A01 T01370049  RH  055%=      5-min Rain = 0
KBR1 260146Z 10009KT 14/05 A3019 RMK A01 T01360048  RH  055%=      5-min Rain = 0
KBR1 260147Z 10008KT 14/05 A3019 RMK A01 T01360049  RH  055%=      5-min Rain = 0
KBR1 260148Z 10008KT 14/05 A3019 RMK A01 T01350050  RH  056%=      5-min Rain = 0
KBR1 260149Z 10008KT 13/05 A3019 RMK A01 T01340049  RH  056%=      5-min Rain = 0
KBR1 260150Z 10009KT 13/05 A3019 RMK A01 T01330048  RH  056%=      5-min Rain = 0
KBR1 260151Z 10009KT 13/05 A302 RMK A01 T01330048  RH  056%=      5-min Rain = 0
KBR1 260152Z 10009KT 13/05 A302 RMK A01 T01330048  RH  056%=      5-min Rain = 0
KBR1 260153Z 10009KT 13/05 A302 RMK A01 T01330049  RH  056%=      5-min Rain = 0
KBR1 260154Z 10009KT 13/05 A302 RMK A01 T01330048  RH  056%=      5-min Rain = 0
KBR1 260155Z 10009KT 13/05 A302 RMK A01 T01330049  RH  056%=      5-min Rain = 0
KBR1 260156Z 10010KT 13/05 A302 RMK A01 T01330048  RH  056%=      5-min Rain = 0
KBR1 260157Z 11010KT 13/05 A3019 RMK A01 T01330049  RH  056%=      5-min Rain = 0
KBR1 260158Z 11010KT 13/05 A3019 RMK A01 T01330048  RH  057%=      5-min Rain = 0
KBR1 260159Z 11011KT 13/05 A3019 RMK A01 T01330048  RH  056%=      5-min Rain = 0
KBR1 260200Z 11010KT 13/05 A3019 RMK A01 T01330048  RH  056%=      5-min Rain = 0
KBR1 260201Z 11010KT 13/05 A3019 RMK A01 T01330048  RH  056%=      5-min Rain = 0
KBR1 260202Z 11010KT 13/05 A3019 RMK A01 T01330048  RH  056%=      5-min Rain = 0
KBR1 260203Z 11010KT 13/05 A302 RMK A01 T01320047  RH  056%=      5-min Rain = 0
KBR1 260204Z 11009KT 13/05 A302 RMK A01 T01320047  RH  056%=      5-min Rain = 0
KBR1 260205Z 11009KT 13/05 A302 RMK A01 T01320047  RH  056%=      5-min Rain = 0
KBR1 260206Z 11009KT 13/05 A302 RMK A01 T01310046  RH  056%=      5-min Rain = 0
KBR1 260207Z 11009KT 13/05 A302 RMK A01 T01320047  RH  056%=      5-min Rain = 0
KBR1 260208Z 11008KT 13/05 A302 RMK A01 T01320047  RH  057%=      5-min Rain = 0
KBR1 260209Z 11009KT 13/05 A302 RMK A01 T01310047  RH  057%=      5-min Rain = 0
KBR1 260210Z 11009KT 13/05 A302 RMK A01 T01310046  RH  056%=      5-min Rain = 0
KBR1 260211Z 11009KT 13/05 A302 RMK A01 T01310046  RH  056%=      5-min Rain = 0
KBR1 260212Z 11009KT 13/05 A302 RMK A01 T01310047  RH  057%=      5-min Rain = 0
KBR1 260213Z 11009KT 13/05 A302 RMK A01 T01300047  RH  057%=      5-min Rain = 0
KBR1 260214Z 11009KT 13/05 A302 RMK A01 T01300046  RH  057%=      5-min Rain = 0
KBR1 260215Z 11009KT 13/05 A302 RMK A01 T01300046  RH  057%=      5-min Rain = 0
KBR1 260216Z 11010KT 13/05 A302 RMK A01 T01290046  RH  057%=      5-min Rain = 0
KBR1 260217Z 11010KT 13/05 A302 RMK A01 T01290047  RH  057%=      5-min Rain = 0
KBR1 260218Z 11009KT 13/05 A302 RMK A01 T01290047  RH  057%=      5-min Rain = 0
KBR1 260219Z 11009KT 13/05 A302 RMK A01 T01290046  RH  057%=      5-min Rain = 0
KBR1 260220Z 11008KT 13/05 A3021 RMK A01 T01280045  RH  057%=      5-min Rain = 0
KBR1 260221Z 11009KT 13/05 A3021 RMK A01 T01280046  RH  057%=      5-min Rain = 0
KBR1 260222Z 11008KT 13/05 A3021 RMK A01 T01290046  RH  057%=      5-min Rain = 0
KBR1 260223Z 11008KT 13/05 A3021 RMK A01 T01280045  RH  057%=      5-min Rain = 0
KBR1 260224Z 11007KT 13/05 A3021 RMK A01 T01280046  RH  057%=      5-min Rain = 0
KBR1 260225Z 11007KT 13/05 A3021 RMK A01 T01280045  RH  057%=      5-min Rain = 0
KBR1 260226Z 11007KT 13/05 A3021 RMK A01 T01270046  RH  058%=      5-min Rain = 0
KBR1 260227Z 11008KT 13/05 A3021 RMK A01 T01250045  RH  058%=      5-min Rain = 0
KBR1 260228Z 11008KT 13/05 A3021 RMK A01 T01250045  RH  058%=      5-min Rain = 0
KBR1 260229Z 11009KT 13/05 A3021 RMK A01 T01250045  RH  059%=      5-min Rain = 0
KBR1 260230Z 11009KT 12/05 A3021 RMK A01 T01240046  RH  059%=      5-min Rain = 0
KBR1 260231Z 11009KT 12/05 A3021 RMK A01 T01230046  RH  059%=      5-min Rain = 0
KBR1 260232Z 11009KT 12/05 A3021 RMK A01 T01210046  RH  060%=      5-min Rain = 0
KBR1 260233Z 11009KT 12/05 A3021 RMK A01 T01210045  RH  060%=      5-min Rain = 0
KBR1 260234Z 11008KT 12/05 A3021 RMK A01 T01210045  RH  060%=      5-min Rain = 0
KBR1 260235Z 11008KT 12/05 A3021 RMK A01 T01200046  RH  060%=      5-min Rain = 0
KBR1 260236Z 11008KT 12/05 A3021 RMK A01 T01190046  RH  061%=      5-min Rain = 0
KBR1 260237Z 11007KT 12/05 A3021 RMK A01 T01190045  RH  060%=      5-min Rain = 0
KBR1 260238Z 11008KT 12/05 A3021 RMK A01 T01190045  RH  061%=      5-min Rain = 0
KBR1 260239Z 10007KT 12/05 A3021 RMK A01 T01180045  RH  061%=      5-min Rain = 0
KBR1 260240Z 10007KT 12/05 A3022 RMK A01 T01170046  RH  061%=      5-min Rain = 0
KBR1 260241Z 10006KT 12/05 A3022 RMK A01 T01160045  RH  062%=      5-min Rain = 0
KBR1 260242Z 10006KT 12/05 A3022 RMK A01 T01150045  RH  062%=      5-min Rain = 0
KBR1 260243Z 10007KT 11/05 A3022 RMK A01 T01140045  RH  062%=      5-min Rain = 0
KBR1 260244Z 10007KT 11/04 A3022 RMK A01 T01130044  RH  062%=      5-min Rain = 0
KBR1 260245Z 10007KT 11/04 A3022 RMK A01 T01120044  RH  063%=      5-min Rain = 0
KBR1 260246Z 10007KT 11/04 A3022 RMK A01 T01120044  RH  063%=      5-min Rain = 0
KBR1 260247Z 10007KT 11/04 A3022 RMK A01 T01110044  RH  064%=      5-min Rain = 0
KBR1 260248Z 10006KT 11/04 A3022 RMK A01 T01100044  RH  064%=      5-min Rain = 0
KBR1 260249Z 11007KT 11/04 A3022 RMK A01 T01090043  RH  064%=      5-min Rain = 0
KBR1 260250Z 11006KT 11/04 A3022 RMK A01 T01090044  RH  064%=      5-min Rain = 0
KBR1 260251Z 11006KT 11/04 A3022 RMK A01 T01100044  RH  064%=      5-min Rain = 0
KBR1 260252Z 11006KT 11/04 A3022 RMK A01 T01090043  RH  064%=      5-min Rain = 0
KBR1 260253Z 11006KT 11/04 A3022 RMK A01 T01090044  RH  064%=      5-min Rain = 0
KBR1 260254Z 11006KT 11/04 A3022 RMK A01 T01090043  RH  064%=      5-min Rain = 0
KBR1 260255Z 12006KT 11/04 A3022 RMK A01 T01090043  RH  064%=      5-min Rain = 0
KBR1 260256Z 12006KT 11/04 A3022 RMK A01 T01090043  RH  064%=      5-min Rain = 0
KBR1 260257Z 12006KT 11/04 A3022 RMK A01 T01080043  RH  064%=      5-min Rain = 0
KBR1 260258Z 12006KT 11/04 A3022 RMK A01 T01080042  RH  064%=      5-min Rain = 0
KBR1 260259Z 12006KT 11/04 A3022 RMK A01 T01080043  RH  064%=      5-min Rain = 0
KBR1 260300Z 12006KT 11/04 A3023 RMK A01 T01070042  RH  064%=      5-min Rain = 0
KBR1 260301Z 12007KT 11/04 A3023 RMK A01 T01070042  RH  064%=      5-min Rain = 0
KBR1 260302Z 13007KT 11/04 A3023 RMK A01 T01070042  RH  064%=      5-min Rain = 0
KBR1 260303Z 13007KT 11/04 A3023 RMK A01 T01070042  RH  064%=      5-min Rain = 0
KBR1 260304Z 13007KT 11/04 A3023 RMK A01 T01070042  RH  064%=      5-min Rain = 0
KBR1 260305Z 13007KT 11/04 A3023 RMK A01 T01070042  RH  064%=      5-min Rain = 0
KBR1 260306Z 13007KT 11/04 A3023 RMK A01 T01070042  RH  064%=      5-min Rain = 0
KBR1 260307Z 13007KT 11/04 A3023 RMK A01 T01060042  RH  065%=      5-min Rain = 0
KBR1 260308Z 12007KT 11/04 A3023 RMK A01 T01060042  RH  065%=      5-min Rain = 0
KBR1 260309Z 12007KT 11/04 A3023 RMK A01 T01050042  RH  065%=      5-min Rain = 0
KBR1 260310Z 12007KT 11/04 A3023 RMK A01 T01050042  RH  065%=      5-min Rain = 0
KBR1 260311Z 12007KT 10/04 A3023 RMK A01 T01040042  RH  065%=      5-min Rain = 0
KBR1 260312Z 12007KT 10/04 A3023 RMK A01 T01040042  RH  065%=      5-min Rain = 0
KBR1 260313Z 12007KT 10/04 A3023 RMK A01 T01040042  RH  065%=      5-min Rain = 0
KBR1 260314Z 11007KT 10/04 A3023 RMK A01 T01030042  RH  066%=      5-min Rain = 0
KBR1 260315Z 11007KT 10/04 A3023 RMK A01 T01010041  RH  066%=      5-min Rain = 0
KBR1 260316Z 10006KT 10/04 A3024 RMK A01 T00990041  RH  067%=      5-min Rain = 0
KBR1 260317Z 09007KT 10/04 A3024 RMK A01 T00960041  RH  068%=      5-min Rain = 0
KBR1 260318Z 09007KT 09/04 A3024 RMK A01 T00940040  RH  069%=      5-min Rain = 0
KBR1 260319Z 08007KT 09/04 A3024 RMK A01 T00930040  RH  069%=      5-min Rain = 0
KBR1 260320Z 08007KT 09/04 A3024 RMK A01 T00920040  RH  070%=      5-min Rain = 0
KBR1 260321Z 08007KT 09/04 A3024 RMK A01 T00910041  RH  071%=      5-min Rain = 0
KBR1 260322Z 08007KT 09/04 A3024 RMK A01 T00910041  RH  071%=      5-min Rain = 0
KBR1 260323Z 08007KT 09/04 A3024 RMK A01 T00910042  RH  071%=      5-min Rain = 0
KBR1 260324Z 08007KT 09/04 A3024 RMK A01 T00910042  RH  071%=      5-min Rain = 0
KBR1 260325Z 08007KT 09/04 A3024 RMK A01 T00910042  RH  071%=      5-min Rain = 0
KBR1 260326Z 08007KT 09/04 A3024 RMK A01 T00910041  RH  071%=      5-min Rain = 0
KBR1 260327Z 09007KT 09/04 A3024 RMK A01 T00920041  RH  071%=      5-min Rain = 0
KBR1 260328Z 09007KT 09/04 A3024 RMK A01 T00920041  RH  070%=      5-min Rain = 0
KBR1 260329Z 09007KT 09/04 A3024 RMK A01 T00920041  RH  070%=      5-min Rain = 0
KBR1 260330Z 08007KT 09/04 A3024 RMK A01 T00920041  RH  070%=      5-min Rain = 0
KBR1 260331Z 08007KT 09/04 A3025 RMK A01 T00920041  RH  070%=      5-min Rain = 0
KBR1 260332Z 08008KT 09/04 A3025 RMK A01 T00920042  RH  071%=      5-min Rain = 0
KBR1 260333Z 08008KT 09/04 A3025 RMK A01 T00920042  RH  071%=      5-min Rain = 0
KBR1 260334Z 08008KT 09/04 A3025 RMK A01 T00910042  RH  071%=      5-min Rain = 0
KBR1 260335Z 08008KT 09/04 A3025 RMK A01 T00910042  RH  071%=      5-min Rain = 0
KBR1 260336Z 08008KT 09/04 A3025 RMK A01 T00910042  RH  071%=      5-min Rain = 0
KBR1 260337Z 08008KT 09/04 A3025 RMK A01 T00910042  RH  071%=      5-min Rain = 0
KBR1 260338Z 08008KT 09/04 A3025 RMK A01 T00920042  RH  071%=      5-min Rain = 0
KBR1 260339Z 07008KT 09/04 A3025 RMK A01 T00910042  RH  071%=      5-min Rain = 0
KBR1 260340Z 07008KT 09/04 A3025 RMK A01 T00920043  RH  071%=      5-min Rain = 0
KBR1 260341Z 07008KT 09/04 A3025 RMK A01 T00920043  RH  071%=      5-min Rain = 0
KBR1 260342Z 06008KT 09/04 A3025 RMK A01 T00920043  RH  071%=      5-min Rain = 0
KBR1 260343Z 06008KT 09/04 A3026 RMK A01 T00930043  RH  071%=      5-min Rain = 0
KBR1 260344Z 07007KT 09/04 A3026 RMK A01 T00930044  RH  071%=      5-min Rain = 0
KBR1 260345Z 06008KT 09/04 A3026 RMK A01 T00930044  RH  071%=      5-min Rain = 0
KBR1 260346Z 06008KT 09/04 A3026 RMK A01 T00940044  RH  071%=      5-min Rain = 0
KBR1 260347Z 06007KT 09/04 A3026 RMK A01 T00940044  RH  071%=      5-min Rain = 0
KBR1 260348Z 06007KT 09/04 A3026 RMK A01 T00940044  RH  071%=      5-min Rain = 0
KBR1 260349Z 07007KT 09/04 A3026 RMK A01 T00930044  RH  071%=      5-min Rain = 0
KBR1 260350Z 07007KT 09/04 A3026 RMK A01 T00930044  RH  071%=      5-min Rain = 0
KBR1 260351Z 07008KT 09/04 A3026 RMK A01 T00930044  RH  071%=      5-min Rain = 0
KBR1 260352Z 07008KT 09/04 A3026 RMK A01 T00930044  RH  071%=      5-min Rain = 0
KBR1 260353Z 07008KT 09/04 A3026 RMK A01 T00930044  RH  071%=      5-min Rain = 0
KBR1 260354Z 07008KT 09/04 A3026 RMK A01 T00930044  RH  072%=      5-min Rain = 0
KBR1 260355Z 07008KT 09/04 A3026 RMK A01 T00920044  RH  072%=      5-min Rain = 0
KBR1 260356Z 07008KT 09/05 A3026 RMK A01 T00910045  RH  073%=      5-min Rain = 0
KBR1 260357Z 06009KT 09/05 A3026 RMK A01 T00910045  RH  073%=      5-min Rain = 0
KBR1 260358Z 07008KT 09/04 A3026 RMK A01 T00900044  RH  073%=      5-min Rain = 0
KBR1 260359Z 07008KT 09/04 A3026 RMK A01 T00900044  RH  073%=      5-min Rain = 0
KBR1 260400Z 06009KT 09/04 A3026 RMK A01 T00900044  RH  073%=      5-min Rain = 0
KBR1 260401Z 07009KT 09/05 A3026 RMK A01 T00890045  RH  074%=      5-min Rain = 0
KBR1 260402Z 07008KT 09/05 A3026 RMK A01 T00900045  RH  073%=      5-min Rain = 0
KBR1 260403Z 07008KT 09/05 A3026 RMK A01 T00900046  RH  074%=      5-min Rain = 0
KBR1 260404Z 07008KT 09/05 A3026 RMK A01 T00900046  RH  074%=      5-min Rain = 0
KBR1 260405Z 07008KT 09/05 A3026 RMK A01 T00890046  RH  074%=      5-min Rain = 0
KBR1 260406Z 07008KT 09/05 A3027 RMK A01 T00890046  RH  074%=      5-min Rain = 0
KBR1 260407Z 07008KT 09/05 A3027 RMK A01 T00890046  RH  074%=      5-min Rain = 0
KBR1 260408Z 07008KT 09/05 A3027 RMK A01 T00880046  RH  075%=      5-min Rain = 0
KBR1 260409Z 07008KT 09/05 A3027 RMK A01 T00870045  RH  075%=      5-min Rain = 0
KBR1 260410Z 07008KT 09/05 A3027 RMK A01 T00870046  RH  075%=      5-min Rain = 0
KBR1 260411Z 07008KT 09/05 A3027 RMK A01 T00860045  RH  076%=      5-min Rain = 0
KBR1 260412Z 07008KT 09/05 A3027 RMK A01 T00860046  RH  076%=      5-min Rain = 0
KBR1 260413Z 07008KT 09/05 A3027 RMK A01 T00850046  RH  076%=      5-min Rain = 0
KBR1 260414Z 07007KT 09/05 A3027 RMK A01 T00860046  RH  076%=      5-min Rain = 0
KBR1 260415Z 06008KT 09/05 A3027 RMK A01 T00860047  RH  076%=      5-min Rain = 0
KBR1 260416Z 06008KT 09/05 A3027 RMK A01 T00860047  RH  076%=      5-min Rain = 0
KBR1 260417Z 06008KT 09/05 A3027 RMK A01 T00860046  RH  076%=      5-min Rain = 0
KBR1 260418Z 06008KT 09/05 A3027 RMK A01 T00860046  RH  076%=      5-min Rain = 0
KBR1 260419Z 06008KT 09/05 A3027 RMK A01 T00850047  RH  077%=      5-min Rain = 0
KBR1 260420Z 06009KT 09/05 A3027 RMK A01 T00850047  RH  077%=      5-min Rain = 0
KBR1 260421Z 06008KT 09/05 A3027 RMK A01 T00850047  RH  077%=      5-min Rain = 0
KBR1 260422Z 06008KT 09/05 A3027 RMK A01 T00850048  RH  078%=      5-min Rain = 0
KBR1 260423Z 06007KT 09/05 A3027 RMK A01 T00850048  RH  078%=      5-min Rain = 0
KBR1 260424Z 07008KT 09/05 A3027 RMK A01 T00850049  RH  078%=      5-min Rain = 0
KBR1 260425Z 07008KT 09/05 A3027 RMK A01 T00850049  RH  078%=      5-min Rain = 0
KBR1 260426Z 07008KT 09/05 A3027 RMK A01 T00860049  RH  078%=      5-min Rain = 0
KBR1 260427Z 07008KT 09/05 A3027 RMK A01 T00860049  RH  078%=      5-min Rain = 0
KBR1 260428Z 08008KT 09/05 A3027 RMK A01 T00860050  RH  078%=      5-min Rain = 0
KBR1 260429Z 08008KT 09/05 A3027 RMK A01 T00860050  RH  078%=      5-min Rain = 0
KBR1 260430Z 08008KT 09/05 A3027 RMK A01 T00870050  RH  077%=      5-min Rain = 0
KBR1 260431Z 08008KT 09/05 A3027 RMK A01 T00880050  RH  077%=      5-min Rain = 0
KBR1 260432Z 08008KT 09/05 A3027 RMK A01 T00880050  RH  077%=      5-min Rain = 0
KBR1 260433Z 08008KT 09/05 A3027 RMK A01 T00890051  RH  077%=      5-min Rain = 0
KBR1 260434Z 08008KT 09/05 A3028 RMK A01 T00900050  RH  076%=      5-min Rain = 0
KBR1 260435Z 08008KT 09/05 A3028 RMK A01 T00900050  RH  076%=      5-min Rain = 0
KBR1 260436Z 08007KT 09/05 A3028 RMK A01 T00900050  RH  076%=      5-min Rain = 0
KBR1 260437Z 07008KT 09/05 A3028 RMK A01 T00890050  RH  077%=      5-min Rain = 0
KBR1 260438Z 07008KT 09/05 A3028 RMK A01 T00890051  RH  077%=      5-min Rain = 0
KBR1 260439Z 07009KT 09/05 A3028 RMK A01 T00890051  RH  077%=      5-min Rain = 0
KBR1 260440Z 06009KT 09/05 A3028 RMK A01 T00880051  RH  077%=      5-min Rain = 0
KBR1 260441Z 06009KT 09/05 A3028 RMK A01 T00880051  RH  078%=      5-min Rain = 0
KBR1 260442Z 06009KT 09/05 A3028 RMK A01 T00880051  RH  078%=      5-min Rain = 0
KBR1 260443Z 06009KT 09/05 A3028 RMK A01 T00870052  RH  079%=      5-min Rain = 0
KBR1 260444Z 06009KT 09/05 A3028 RMK A01 T00860053  RH  080%=      5-min Rain = 0
KBR1 260445Z 07010KT 09/05 A3028 RMK A01 T00850054  RH  080%=      5-min Rain = 0
KBR1 260446Z 07010KT 09/06 A3028 RMK A01 T00860055  RH  081%=      5-min Rain = 0
KBR1 260447Z 07009KT 09/06 A3028 RMK A01 T00860056  RH  082%=      5-min Rain = 0
KBR1 260448Z 07009KT 09/06 A3028 RMK A01 T00860057  RH  082%=      5-min Rain = 0
KBR1 260449Z 07009KT 09/06 A3028 RMK A01 T00860057  RH  082%=      5-min Rain = 0
KBR1 260450Z 07008KT 09/06 A3028 RMK A01 T00860057  RH  082%=      5-min Rain = 0
KBR1 260451Z 07007KT 09/06 A3028 RMK A01 T00860057  RH  082%=      5-min Rain = 0
KBR1 260452Z 08008KT 09/06 A3028 RMK A01 T00870057  RH  082%=      5-min Rain = 0
KBR1 260453Z 08009KT 09/06 A3028 RMK A01 T00870056  RH  081%=      5-min Rain = 0
KBR1 260454Z 08008KT 09/06 A3028 RMK A01 T00880056  RH  081%=      5-min Rain = 0
KBR1 260455Z 08008KT 09/06 A3028 RMK A01 T00880056  RH  080%=      5-min Rain = 0
KBR1 260456Z 09008KT 09/06 A3028 RMK A01 T00890056  RH  080%=      5-min Rain = 0
KBR1 260457Z 09008KT 09/06 A3028 RMK A01 T00890055  RH  079%=      5-min Rain = 0
KBR1 260458Z 08008KT 09/06 A3028 RMK A01 T00890055  RH  079%=      5-min Rain = 0
KBR1 260459Z 09008KT 09/06 A3028 RMK A01 T00890055  RH  079%=      5-min Rain = 0

Page generated in 0.0708 seconds.